<?xml version="1.0" encoding="UTF-8" standalone="no" ?>
<gpx xmlns="http://www.topografix.com/GPX/1/1" xmlns:xsi="http://www.w3.org/2001/XMLSchema-instance" xsi:schemaLocation="http://www.topografix.com/GPX/1/1 http://www.topografix.com/GPX/1/1/gpx.xsd" version="1.1" creator="VisuGPX - https://www.visugpx.com">
  <metadata>
    <name>depart refuge bastan retour etang d'oredon-2020-07-14-125438</name>
    <desc><![CDATA[[b][i][url][img][/img][/url][/i][/b]]]></desc>
  </metadata>
  <trk>
    <name><![CDATA[MA-Rando-2020-07-14-125438]]></name>
    <trkseg>
      <trkpt lat="42.85275" lon="0.21076">
        <ele>2254</ele>
        <time>2020-07-14T06:41:25Z</time>
      </trkpt>
      <trkpt lat="42.85269" lon="0.21085">
        <ele>2259</ele>
        <time>2020-07-14T06:41:47Z</time>
      </trkpt>
      <trkpt lat="42.85262" lon="0.21092">
        <ele>2261</ele>
        <time>2020-07-14T06:42:08Z</time>
      </trkpt>
      <trkpt lat="42.85255" lon="0.21082">
        <ele>2244</ele>
        <time>2020-07-14T06:43:04Z</time>
      </trkpt>
      <trkpt lat="42.85246" lon="0.2108">
        <ele>2247</ele>
        <time>2020-07-14T06:43:19Z</time>
      </trkpt>
      <trkpt lat="42.85236" lon="0.21077">
        <ele>2246</ele>
        <time>2020-07-14T06:43:31Z</time>
      </trkpt>
      <trkpt lat="42.85228" lon="0.21081">
        <ele>2245</ele>
        <time>2020-07-14T06:43:40Z</time>
      </trkpt>
      <trkpt lat="42.85219" lon="0.21089">
        <ele>2244</ele>
        <time>2020-07-14T06:43:48Z</time>
      </trkpt>
      <trkpt lat="42.85212" lon="0.21098">
        <ele>2242</ele>
        <time>2020-07-14T06:43:56Z</time>
      </trkpt>
      <trkpt lat="42.85207" lon="0.21109">
        <ele>2239</ele>
        <time>2020-07-14T06:44:03Z</time>
      </trkpt>
      <trkpt lat="42.85202" lon="0.2112">
        <ele>2240</ele>
        <time>2020-07-14T06:44:11Z</time>
      </trkpt>
      <trkpt lat="42.85194" lon="0.21127">
        <ele>2238</ele>
        <time>2020-07-14T06:44:20Z</time>
      </trkpt>
      <trkpt lat="42.85184" lon="0.21132">
        <ele>2237</ele>
        <time>2020-07-14T06:44:30Z</time>
      </trkpt>
      <trkpt lat="42.85174" lon="0.21133">
        <ele>2239</ele>
        <time>2020-07-14T06:44:38Z</time>
      </trkpt>
      <trkpt lat="42.85165" lon="0.21136">
        <ele>2239</ele>
        <time>2020-07-14T06:44:46Z</time>
      </trkpt>
      <trkpt lat="42.85155" lon="0.21135">
        <ele>2240</ele>
        <time>2020-07-14T06:44:55Z</time>
      </trkpt>
      <trkpt lat="42.85145" lon="0.21136">
        <ele>2238</ele>
        <time>2020-07-14T06:45:03Z</time>
      </trkpt>
      <trkpt lat="42.85136" lon="0.21139">
        <ele>2233</ele>
        <time>2020-07-14T06:45:11Z</time>
      </trkpt>
      <trkpt lat="42.85127" lon="0.21144">
        <ele>2230</ele>
        <time>2020-07-14T06:45:20Z</time>
      </trkpt>
      <trkpt lat="42.85118" lon="0.21151">
        <ele>2229</ele>
        <time>2020-07-14T06:45:27Z</time>
      </trkpt>
      <trkpt lat="42.85111" lon="0.2116">
        <ele>2225</ele>
        <time>2020-07-14T06:45:35Z</time>
      </trkpt>
      <trkpt lat="42.85104" lon="0.21169">
        <ele>2230</ele>
        <time>2020-07-14T06:45:42Z</time>
      </trkpt>
      <trkpt lat="42.85097" lon="0.21178">
        <ele>2226</ele>
        <time>2020-07-14T06:45:50Z</time>
      </trkpt>
      <trkpt lat="42.85089" lon="0.21185">
        <ele>2222</ele>
        <time>2020-07-14T06:46:01Z</time>
      </trkpt>
      <trkpt lat="42.85081" lon="0.21193">
        <ele>2221</ele>
        <time>2020-07-14T06:46:09Z</time>
      </trkpt>
      <trkpt lat="42.85073" lon="0.212">
        <ele>2224</ele>
        <time>2020-07-14T06:46:20Z</time>
      </trkpt>
      <trkpt lat="42.85064" lon="0.21204">
        <ele>2227</ele>
        <time>2020-07-14T06:46:28Z</time>
      </trkpt>
      <trkpt lat="42.85055" lon="0.21211">
        <ele>2227</ele>
        <time>2020-07-14T06:46:37Z</time>
      </trkpt>
      <trkpt lat="42.85046" lon="0.21214">
        <ele>2229</ele>
        <time>2020-07-14T06:46:44Z</time>
      </trkpt>
      <trkpt lat="42.85036" lon="0.21217">
        <ele>2232</ele>
        <time>2020-07-14T06:46:52Z</time>
      </trkpt>
      <trkpt lat="42.85026" lon="0.21215">
        <ele>2234</ele>
        <time>2020-07-14T06:47:01Z</time>
      </trkpt>
      <trkpt lat="42.85016" lon="0.21217">
        <ele>2236</ele>
        <time>2020-07-14T06:47:09Z</time>
      </trkpt>
      <trkpt lat="42.85007" lon="0.21225">
        <ele>2236</ele>
        <time>2020-07-14T06:47:17Z</time>
      </trkpt>
      <trkpt lat="42.84999" lon="0.21231">
        <ele>2235</ele>
        <time>2020-07-14T06:47:25Z</time>
      </trkpt>
      <trkpt lat="42.84991" lon="0.2124">
        <ele>2236</ele>
        <time>2020-07-14T06:47:33Z</time>
      </trkpt>
      <trkpt lat="42.84983" lon="0.21248">
        <ele>2228</ele>
        <time>2020-07-14T06:47:40Z</time>
      </trkpt>
      <trkpt lat="42.84977" lon="0.21258">
        <ele>2227</ele>
        <time>2020-07-14T06:47:48Z</time>
      </trkpt>
      <trkpt lat="42.84968" lon="0.21267">
        <ele>2225</ele>
        <time>2020-07-14T06:47:57Z</time>
      </trkpt>
      <trkpt lat="42.84962" lon="0.21276">
        <ele>2221</ele>
        <time>2020-07-14T06:48:06Z</time>
      </trkpt>
      <trkpt lat="42.84959" lon="0.21289">
        <ele>2222</ele>
        <time>2020-07-14T06:48:15Z</time>
      </trkpt>
      <trkpt lat="42.84956" lon="0.21302">
        <ele>2229</ele>
        <time>2020-07-14T06:48:23Z</time>
      </trkpt>
      <trkpt lat="42.84952" lon="0.21316">
        <ele>2228</ele>
        <time>2020-07-14T06:48:33Z</time>
      </trkpt>
      <trkpt lat="42.8495" lon="0.21329">
        <ele>2231</ele>
        <time>2020-07-14T06:48:48Z</time>
      </trkpt>
      <trkpt lat="42.84942" lon="0.21317">
        <ele>2233</ele>
        <time>2020-07-14T06:52:49Z</time>
      </trkpt>
      <trkpt lat="42.84935" lon="0.21307">
        <ele>2234</ele>
        <time>2020-07-14T06:52:58Z</time>
      </trkpt>
      <trkpt lat="42.84928" lon="0.21297">
        <ele>2227</ele>
        <time>2020-07-14T06:53:04Z</time>
      </trkpt>
      <trkpt lat="42.84925" lon="0.21285">
        <ele>2223</ele>
        <time>2020-07-14T06:53:11Z</time>
      </trkpt>
      <trkpt lat="42.84932" lon="0.21275">
        <ele>2225</ele>
        <time>2020-07-14T06:53:16Z</time>
      </trkpt>
      <trkpt lat="42.8494" lon="0.21268">
        <ele>2224</ele>
        <time>2020-07-14T06:53:20Z</time>
      </trkpt>
      <trkpt lat="42.84949" lon="0.21262">
        <ele>2229</ele>
        <time>2020-07-14T06:53:27Z</time>
      </trkpt>
      <trkpt lat="42.84955" lon="0.21253">
        <ele>2226</ele>
        <time>2020-07-14T06:53:39Z</time>
      </trkpt>
      <trkpt lat="42.84951" lon="0.21241">
        <ele>2230</ele>
        <time>2020-07-14T06:53:49Z</time>
      </trkpt>
      <trkpt lat="42.84945" lon="0.21232">
        <ele>2224</ele>
        <time>2020-07-14T06:53:56Z</time>
      </trkpt>
      <trkpt lat="42.84936" lon="0.21226">
        <ele>2218</ele>
        <time>2020-07-14T06:54:04Z</time>
      </trkpt>
      <trkpt lat="42.84923" lon="0.21232">
        <ele>2221</ele>
        <time>2020-07-14T06:54:10Z</time>
      </trkpt>
      <trkpt lat="42.84914" lon="0.21239">
        <ele>2220</ele>
        <time>2020-07-14T06:54:15Z</time>
      </trkpt>
      <trkpt lat="42.84903" lon="0.21244">
        <ele>2220</ele>
        <time>2020-07-14T06:54:23Z</time>
      </trkpt>
      <trkpt lat="42.84893" lon="0.21248">
        <ele>2220</ele>
        <time>2020-07-14T06:54:30Z</time>
      </trkpt>
      <trkpt lat="42.84883" lon="0.21251">
        <ele>2221</ele>
        <time>2020-07-14T06:54:37Z</time>
      </trkpt>
      <trkpt lat="42.84872" lon="0.21256">
        <ele>2218</ele>
        <time>2020-07-14T06:54:45Z</time>
      </trkpt>
      <trkpt lat="42.84863" lon="0.21263">
        <ele>2210</ele>
        <time>2020-07-14T06:54:51Z</time>
      </trkpt>
      <trkpt lat="42.84859" lon="0.21277">
        <ele>2205</ele>
        <time>2020-07-14T06:54:57Z</time>
      </trkpt>
      <trkpt lat="42.84851" lon="0.21288">
        <ele>2203</ele>
        <time>2020-07-14T06:55:04Z</time>
      </trkpt>
      <trkpt lat="42.84842" lon="0.21295">
        <ele>2203</ele>
        <time>2020-07-14T06:55:12Z</time>
      </trkpt>
      <trkpt lat="42.84834" lon="0.21303">
        <ele>2198</ele>
        <time>2020-07-14T06:55:20Z</time>
      </trkpt>
      <trkpt lat="42.84827" lon="0.21312">
        <ele>2199</ele>
        <time>2020-07-14T06:55:28Z</time>
      </trkpt>
      <trkpt lat="42.84819" lon="0.21321">
        <ele>2201</ele>
        <time>2020-07-14T06:55:36Z</time>
      </trkpt>
      <trkpt lat="42.84811" lon="0.21328">
        <ele>2202</ele>
        <time>2020-07-14T06:55:44Z</time>
      </trkpt>
      <trkpt lat="42.84803" lon="0.21336">
        <ele>2200</ele>
        <time>2020-07-14T06:55:52Z</time>
      </trkpt>
      <trkpt lat="42.84795" lon="0.21342">
        <ele>2199</ele>
        <time>2020-07-14T06:56:00Z</time>
      </trkpt>
      <trkpt lat="42.84786" lon="0.21347">
        <ele>2201</ele>
        <time>2020-07-14T06:56:08Z</time>
      </trkpt>
      <trkpt lat="42.84776" lon="0.21351">
        <ele>2200</ele>
        <time>2020-07-14T06:56:17Z</time>
      </trkpt>
      <trkpt lat="42.84766" lon="0.21349">
        <ele>2202</ele>
        <time>2020-07-14T06:56:26Z</time>
      </trkpt>
      <trkpt lat="42.84758" lon="0.21342">
        <ele>2202</ele>
        <time>2020-07-14T06:56:33Z</time>
      </trkpt>
      <trkpt lat="42.84751" lon="0.21331">
        <ele>2203</ele>
        <time>2020-07-14T06:56:41Z</time>
      </trkpt>
      <trkpt lat="42.84746" lon="0.2132">
        <ele>2200</ele>
        <time>2020-07-14T06:56:49Z</time>
      </trkpt>
      <trkpt lat="42.8474" lon="0.21309">
        <ele>2202</ele>
        <time>2020-07-14T06:56:58Z</time>
      </trkpt>
      <trkpt lat="42.84735" lon="0.21295">
        <ele>2202</ele>
        <time>2020-07-14T06:57:17Z</time>
      </trkpt>
      <trkpt lat="42.84726" lon="0.21287">
        <ele>2200</ele>
        <time>2020-07-14T06:57:30Z</time>
      </trkpt>
      <trkpt lat="42.84721" lon="0.21276">
        <ele>2200</ele>
        <time>2020-07-14T06:57:38Z</time>
      </trkpt>
      <trkpt lat="42.84717" lon="0.21265">
        <ele>2198</ele>
        <time>2020-07-14T06:57:54Z</time>
      </trkpt>
      <trkpt lat="42.84716" lon="0.21252">
        <ele>2195</ele>
        <time>2020-07-14T06:58:06Z</time>
      </trkpt>
      <trkpt lat="42.84716" lon="0.21238">
        <ele>2195</ele>
        <time>2020-07-14T06:58:17Z</time>
      </trkpt>
      <trkpt lat="42.84713" lon="0.21226">
        <ele>2197</ele>
        <time>2020-07-14T06:58:27Z</time>
      </trkpt>
      <trkpt lat="42.8471" lon="0.21214">
        <ele>2195</ele>
        <time>2020-07-14T06:58:44Z</time>
      </trkpt>
      <trkpt lat="42.84708" lon="0.21201">
        <ele>2193</ele>
        <time>2020-07-14T06:58:57Z</time>
      </trkpt>
      <trkpt lat="42.84709" lon="0.21189">
        <ele>2192</ele>
        <time>2020-07-14T06:59:10Z</time>
      </trkpt>
      <trkpt lat="42.84715" lon="0.2118">
        <ele>2191</ele>
        <time>2020-07-14T06:59:24Z</time>
      </trkpt>
      <trkpt lat="42.84723" lon="0.21171">
        <ele>2190</ele>
        <time>2020-07-14T06:59:36Z</time>
      </trkpt>
      <trkpt lat="42.84728" lon="0.21161">
        <ele>2186</ele>
        <time>2020-07-14T06:59:46Z</time>
      </trkpt>
      <trkpt lat="42.84734" lon="0.2115">
        <ele>2182</ele>
        <time>2020-07-14T06:59:58Z</time>
      </trkpt>
      <trkpt lat="42.8474" lon="0.2114">
        <ele>2184</ele>
        <time>2020-07-14T07:00:09Z</time>
      </trkpt>
      <trkpt lat="42.84743" lon="0.21128">
        <ele>2182</ele>
        <time>2020-07-14T07:00:20Z</time>
      </trkpt>
      <trkpt lat="42.84738" lon="0.21115">
        <ele>2183</ele>
        <time>2020-07-14T07:00:31Z</time>
      </trkpt>
      <trkpt lat="42.84738" lon="0.21102">
        <ele>2181</ele>
        <time>2020-07-14T07:00:48Z</time>
      </trkpt>
      <trkpt lat="42.84732" lon="0.21092">
        <ele>2180</ele>
        <time>2020-07-14T07:01:02Z</time>
      </trkpt>
      <trkpt lat="42.84723" lon="0.21083">
        <ele>2178</ele>
        <time>2020-07-14T07:01:19Z</time>
      </trkpt>
      <trkpt lat="42.84716" lon="0.21075">
        <ele>2173</ele>
        <time>2020-07-14T07:01:33Z</time>
      </trkpt>
      <trkpt lat="42.84711" lon="0.21064">
        <ele>2171</ele>
        <time>2020-07-14T07:01:45Z</time>
      </trkpt>
      <trkpt lat="42.84707" lon="0.21052">
        <ele>2171</ele>
        <time>2020-07-14T07:01:56Z</time>
      </trkpt>
      <trkpt lat="42.84701" lon="0.21042">
        <ele>2170</ele>
        <time>2020-07-14T07:02:08Z</time>
      </trkpt>
      <trkpt lat="42.84697" lon="0.21029">
        <ele>2165</ele>
        <time>2020-07-14T07:02:36Z</time>
      </trkpt>
      <trkpt lat="42.84693" lon="0.21017">
        <ele>2164</ele>
        <time>2020-07-14T07:02:47Z</time>
      </trkpt>
      <trkpt lat="42.84689" lon="0.21004">
        <ele>2160</ele>
        <time>2020-07-14T07:02:59Z</time>
      </trkpt>
      <trkpt lat="42.84687" lon="0.20992">
        <ele>2161</ele>
        <time>2020-07-14T07:03:10Z</time>
      </trkpt>
      <trkpt lat="42.84685" lon="0.2098">
        <ele>2158</ele>
        <time>2020-07-14T07:03:21Z</time>
      </trkpt>
      <trkpt lat="42.8468" lon="0.20968">
        <ele>2156</ele>
        <time>2020-07-14T07:03:34Z</time>
      </trkpt>
      <trkpt lat="42.84675" lon="0.20958">
        <ele>2154</ele>
        <time>2020-07-14T07:03:44Z</time>
      </trkpt>
      <trkpt lat="42.84668" lon="0.20949">
        <ele>2151</ele>
        <time>2020-07-14T07:03:55Z</time>
      </trkpt>
      <trkpt lat="42.84663" lon="0.20936">
        <ele>2153</ele>
        <time>2020-07-14T07:04:17Z</time>
      </trkpt>
      <trkpt lat="42.84653" lon="0.20941">
        <ele>2150</ele>
        <time>2020-07-14T07:04:41Z</time>
      </trkpt>
      <trkpt lat="42.8464" lon="0.20942">
        <ele>2146</ele>
        <time>2020-07-14T07:05:19Z</time>
      </trkpt>
      <trkpt lat="42.84631" lon="0.20941">
        <ele>2145</ele>
        <time>2020-07-14T07:05:29Z</time>
      </trkpt>
      <trkpt lat="42.84622" lon="0.20939">
        <ele>2148</ele>
        <time>2020-07-14T07:05:40Z</time>
      </trkpt>
      <trkpt lat="42.84614" lon="0.20932">
        <ele>2149</ele>
        <time>2020-07-14T07:05:49Z</time>
      </trkpt>
      <trkpt lat="42.84608" lon="0.20922">
        <ele>2150</ele>
        <time>2020-07-14T07:06:04Z</time>
      </trkpt>
      <trkpt lat="42.84604" lon="0.2091">
        <ele>2148</ele>
        <time>2020-07-14T07:06:17Z</time>
      </trkpt>
      <trkpt lat="42.84599" lon="0.209">
        <ele>2148</ele>
        <time>2020-07-14T07:06:28Z</time>
      </trkpt>
      <trkpt lat="42.84591" lon="0.20892">
        <ele>2147</ele>
        <time>2020-07-14T07:06:37Z</time>
      </trkpt>
      <trkpt lat="42.84583" lon="0.20885">
        <ele>2147</ele>
        <time>2020-07-14T07:06:46Z</time>
      </trkpt>
      <trkpt lat="42.8457" lon="0.20883">
        <ele>2146</ele>
        <time>2020-07-14T07:06:58Z</time>
      </trkpt>
      <trkpt lat="42.8456" lon="0.20888">
        <ele>2145</ele>
        <time>2020-07-14T07:07:07Z</time>
      </trkpt>
      <trkpt lat="42.8455" lon="0.20891">
        <ele>2142</ele>
        <time>2020-07-14T07:07:16Z</time>
      </trkpt>
      <trkpt lat="42.84541" lon="0.20886">
        <ele>2141</ele>
        <time>2020-07-14T07:07:28Z</time>
      </trkpt>
      <trkpt lat="42.84534" lon="0.20878">
        <ele>2143</ele>
        <time>2020-07-14T07:07:39Z</time>
      </trkpt>
      <trkpt lat="42.84533" lon="0.20864">
        <ele>2143</ele>
        <time>2020-07-14T07:07:51Z</time>
      </trkpt>
      <trkpt lat="42.84531" lon="0.20848">
        <ele>2147</ele>
        <time>2020-07-14T07:08:38Z</time>
      </trkpt>
      <trkpt lat="42.84527" lon="0.20836">
        <ele>2146</ele>
        <time>2020-07-14T07:08:54Z</time>
      </trkpt>
      <trkpt lat="42.84524" lon="0.20824">
        <ele>2145</ele>
        <time>2020-07-14T07:09:05Z</time>
      </trkpt>
      <trkpt lat="42.84521" lon="0.20811">
        <ele>2144</ele>
        <time>2020-07-14T07:09:11Z</time>
      </trkpt>
      <trkpt lat="42.84518" lon="0.20798">
        <ele>2144</ele>
        <time>2020-07-14T07:09:23Z</time>
      </trkpt>
      <trkpt lat="42.84514" lon="0.20787">
        <ele>2146</ele>
        <time>2020-07-14T07:09:34Z</time>
      </trkpt>
      <trkpt lat="42.84507" lon="0.20772">
        <ele>2151</ele>
        <time>2020-07-14T07:09:54Z</time>
      </trkpt>
      <trkpt lat="42.845" lon="0.20763">
        <ele>2151</ele>
        <time>2020-07-14T07:10:07Z</time>
      </trkpt>
      <trkpt lat="42.84491" lon="0.20762">
        <ele>2150</ele>
        <time>2020-07-14T07:10:17Z</time>
      </trkpt>
      <trkpt lat="42.84482" lon="0.20767">
        <ele>2148</ele>
        <time>2020-07-14T07:10:26Z</time>
      </trkpt>
      <trkpt lat="42.84473" lon="0.20772">
        <ele>2149</ele>
        <time>2020-07-14T07:10:35Z</time>
      </trkpt>
      <trkpt lat="42.84459" lon="0.20771">
        <ele>2153</ele>
        <time>2020-07-14T07:10:56Z</time>
      </trkpt>
      <trkpt lat="42.84451" lon="0.20777">
        <ele>2149</ele>
        <time>2020-07-14T07:11:10Z</time>
      </trkpt>
      <trkpt lat="42.84444" lon="0.20786">
        <ele>2145</ele>
        <time>2020-07-14T07:11:19Z</time>
      </trkpt>
      <trkpt lat="42.84437" lon="0.20794">
        <ele>2145</ele>
        <time>2020-07-14T07:11:27Z</time>
      </trkpt>
      <trkpt lat="42.8443" lon="0.20804">
        <ele>2149</ele>
        <time>2020-07-14T07:11:35Z</time>
      </trkpt>
      <trkpt lat="42.84424" lon="0.20814">
        <ele>2146</ele>
        <time>2020-07-14T07:11:46Z</time>
      </trkpt>
      <trkpt lat="42.84424" lon="0.20827">
        <ele>2147</ele>
        <time>2020-07-14T07:11:58Z</time>
      </trkpt>
      <trkpt lat="42.84423" lon="0.20839">
        <ele>2145</ele>
        <time>2020-07-14T07:12:11Z</time>
      </trkpt>
      <trkpt lat="42.8442" lon="0.20852">
        <ele>2145</ele>
        <time>2020-07-14T07:12:22Z</time>
      </trkpt>
      <trkpt lat="42.84412" lon="0.20859">
        <ele>2142</ele>
        <time>2020-07-14T07:12:39Z</time>
      </trkpt>
      <trkpt lat="42.84405" lon="0.20867">
        <ele>2142</ele>
        <time>2020-07-14T07:12:49Z</time>
      </trkpt>
      <trkpt lat="42.84394" lon="0.20863">
        <ele>2141</ele>
        <time>2020-07-14T07:13:09Z</time>
      </trkpt>
      <trkpt lat="42.84394" lon="0.2085">
        <ele>2138</ele>
        <time>2020-07-14T07:13:22Z</time>
      </trkpt>
      <trkpt lat="42.84389" lon="0.20838">
        <ele>2136</ele>
        <time>2020-07-14T07:13:31Z</time>
      </trkpt>
      <trkpt lat="42.84382" lon="0.20829">
        <ele>2137</ele>
        <time>2020-07-14T07:13:41Z</time>
      </trkpt>
      <trkpt lat="42.84373" lon="0.20825">
        <ele>2136</ele>
        <time>2020-07-14T07:13:53Z</time>
      </trkpt>
      <trkpt lat="42.84364" lon="0.20822">
        <ele>2134</ele>
        <time>2020-07-14T07:14:03Z</time>
      </trkpt>
      <trkpt lat="42.84354" lon="0.20824">
        <ele>2131</ele>
        <time>2020-07-14T07:14:12Z</time>
      </trkpt>
      <trkpt lat="42.84344" lon="0.20824">
        <ele>2130</ele>
        <time>2020-07-14T07:14:24Z</time>
      </trkpt>
      <trkpt lat="42.84335" lon="0.20826">
        <ele>2125</ele>
        <time>2020-07-14T07:14:35Z</time>
      </trkpt>
      <trkpt lat="42.84326" lon="0.20831">
        <ele>2129</ele>
        <time>2020-07-14T07:14:44Z</time>
      </trkpt>
      <trkpt lat="42.84316" lon="0.20834">
        <ele>2124</ele>
        <time>2020-07-14T07:14:54Z</time>
      </trkpt>
      <trkpt lat="42.84306" lon="0.20838">
        <ele>2120</ele>
        <time>2020-07-14T07:15:03Z</time>
      </trkpt>
      <trkpt lat="42.84298" lon="0.20844">
        <ele>2121</ele>
        <time>2020-07-14T07:15:12Z</time>
      </trkpt>
      <trkpt lat="42.84288" lon="0.20847">
        <ele>2118</ele>
        <time>2020-07-14T07:15:22Z</time>
      </trkpt>
      <trkpt lat="42.84279" lon="0.2085">
        <ele>2119</ele>
        <time>2020-07-14T07:15:32Z</time>
      </trkpt>
      <trkpt lat="42.84269" lon="0.20847">
        <ele>2116</ele>
        <time>2020-07-14T07:15:43Z</time>
      </trkpt>
      <trkpt lat="42.8426" lon="0.20842">
        <ele>2118</ele>
        <time>2020-07-14T07:15:55Z</time>
      </trkpt>
      <trkpt lat="42.8425" lon="0.20833">
        <ele>2116</ele>
        <time>2020-07-14T07:16:47Z</time>
      </trkpt>
      <trkpt lat="42.84241" lon="0.20829">
        <ele>2115</ele>
        <time>2020-07-14T07:17:01Z</time>
      </trkpt>
      <trkpt lat="42.8425" lon="0.20826">
        <ele>2116</ele>
        <time>2020-07-14T07:17:35Z</time>
      </trkpt>
      <trkpt lat="42.8426" lon="0.20834">
        <ele>2120</ele>
        <time>2020-07-14T07:18:32Z</time>
      </trkpt>
      <trkpt lat="42.84248" lon="0.20833">
        <ele>2117</ele>
        <time>2020-07-14T07:18:57Z</time>
      </trkpt>
      <trkpt lat="42.8424" lon="0.20825">
        <ele>2118</ele>
        <time>2020-07-14T07:19:05Z</time>
      </trkpt>
      <trkpt lat="42.84231" lon="0.20818">
        <ele>2118</ele>
        <time>2020-07-14T07:19:12Z</time>
      </trkpt>
      <trkpt lat="42.84221" lon="0.20813">
        <ele>2119</ele>
        <time>2020-07-14T07:19:20Z</time>
      </trkpt>
      <trkpt lat="42.84214" lon="0.20804">
        <ele>2117</ele>
        <time>2020-07-14T07:19:28Z</time>
      </trkpt>
      <trkpt lat="42.84209" lon="0.20792">
        <ele>2111</ele>
        <time>2020-07-14T07:19:38Z</time>
      </trkpt>
      <trkpt lat="42.84207" lon="0.20774">
        <ele>2107</ele>
        <time>2020-07-14T07:19:52Z</time>
      </trkpt>
      <trkpt lat="42.84205" lon="0.20761">
        <ele>2106</ele>
        <time>2020-07-14T07:20:05Z</time>
      </trkpt>
      <trkpt lat="42.842" lon="0.2075">
        <ele>2107</ele>
        <time>2020-07-14T07:20:20Z</time>
      </trkpt>
      <trkpt lat="42.84199" lon="0.20733">
        <ele>2098</ele>
        <time>2020-07-14T07:20:40Z</time>
      </trkpt>
      <trkpt lat="42.84199" lon="0.20721">
        <ele>2100</ele>
        <time>2020-07-14T07:20:52Z</time>
      </trkpt>
      <trkpt lat="42.84192" lon="0.20711">
        <ele>2096</ele>
        <time>2020-07-14T07:21:03Z</time>
      </trkpt>
      <trkpt lat="42.84186" lon="0.20701">
        <ele>2094</ele>
        <time>2020-07-14T07:21:17Z</time>
      </trkpt>
      <trkpt lat="42.84179" lon="0.20693">
        <ele>2092</ele>
        <time>2020-07-14T07:21:29Z</time>
      </trkpt>
      <trkpt lat="42.84181" lon="0.2068">
        <ele>2083</ele>
        <time>2020-07-14T07:21:48Z</time>
      </trkpt>
      <trkpt lat="42.84182" lon="0.20667">
        <ele>2079</ele>
        <time>2020-07-14T07:21:59Z</time>
      </trkpt>
      <trkpt lat="42.84182" lon="0.20654">
        <ele>2074</ele>
        <time>2020-07-14T07:22:11Z</time>
      </trkpt>
      <trkpt lat="42.84177" lon="0.20643">
        <ele>2075</ele>
        <time>2020-07-14T07:22:21Z</time>
      </trkpt>
      <trkpt lat="42.8417" lon="0.20634">
        <ele>2079</ele>
        <time>2020-07-14T07:22:32Z</time>
      </trkpt>
      <trkpt lat="42.84165" lon="0.20623">
        <ele>2074</ele>
        <time>2020-07-14T07:22:43Z</time>
      </trkpt>
      <trkpt lat="42.84156" lon="0.20616">
        <ele>2070</ele>
        <time>2020-07-14T07:22:55Z</time>
      </trkpt>
      <trkpt lat="42.84148" lon="0.20608">
        <ele>2069</ele>
        <time>2020-07-14T07:23:08Z</time>
      </trkpt>
      <trkpt lat="42.84141" lon="0.20599">
        <ele>2069</ele>
        <time>2020-07-14T07:23:22Z</time>
      </trkpt>
      <trkpt lat="42.84133" lon="0.2059">
        <ele>2070</ele>
        <time>2020-07-14T07:23:32Z</time>
      </trkpt>
      <trkpt lat="42.84127" lon="0.2058">
        <ele>2069</ele>
        <time>2020-07-14T07:23:41Z</time>
      </trkpt>
      <trkpt lat="42.84124" lon="0.20568">
        <ele>2065</ele>
        <time>2020-07-14T07:23:51Z</time>
      </trkpt>
      <trkpt lat="42.8412" lon="0.20555">
        <ele>2060</ele>
        <time>2020-07-14T07:23:59Z</time>
      </trkpt>
      <trkpt lat="42.84116" lon="0.20544">
        <ele>2062</ele>
        <time>2020-07-14T07:24:08Z</time>
      </trkpt>
      <trkpt lat="42.84112" lon="0.20532">
        <ele>2060</ele>
        <time>2020-07-14T07:24:18Z</time>
      </trkpt>
      <trkpt lat="42.84111" lon="0.20519">
        <ele>2060</ele>
        <time>2020-07-14T07:24:27Z</time>
      </trkpt>
      <trkpt lat="42.84108" lon="0.20507">
        <ele>2061</ele>
        <time>2020-07-14T07:24:35Z</time>
      </trkpt>
      <trkpt lat="42.84104" lon="0.20494">
        <ele>2059</ele>
        <time>2020-07-14T07:24:44Z</time>
      </trkpt>
      <trkpt lat="42.84101" lon="0.20483">
        <ele>2059</ele>
        <time>2020-07-14T07:24:52Z</time>
      </trkpt>
      <trkpt lat="42.84097" lon="0.20471">
        <ele>2057</ele>
        <time>2020-07-14T07:25:01Z</time>
      </trkpt>
      <trkpt lat="42.8409" lon="0.20461">
        <ele>2056</ele>
        <time>2020-07-14T07:25:08Z</time>
      </trkpt>
      <trkpt lat="42.84083" lon="0.20453">
        <ele>2057</ele>
        <time>2020-07-14T07:25:17Z</time>
      </trkpt>
      <trkpt lat="42.84074" lon="0.20452">
        <ele>2053</ele>
        <time>2020-07-14T07:25:25Z</time>
      </trkpt>
      <trkpt lat="42.84064" lon="0.20452">
        <ele>2049</ele>
        <time>2020-07-14T07:25:33Z</time>
      </trkpt>
      <trkpt lat="42.84054" lon="0.20452">
        <ele>2052</ele>
        <time>2020-07-14T07:25:41Z</time>
      </trkpt>
      <trkpt lat="42.84046" lon="0.20446">
        <ele>2049</ele>
        <time>2020-07-14T07:25:52Z</time>
      </trkpt>
      <trkpt lat="42.84038" lon="0.20439">
        <ele>2043</ele>
        <time>2020-07-14T07:26:04Z</time>
      </trkpt>
      <trkpt lat="42.8403" lon="0.20434">
        <ele>2041</ele>
        <time>2020-07-14T07:26:16Z</time>
      </trkpt>
      <trkpt lat="42.84021" lon="0.20431">
        <ele>2038</ele>
        <time>2020-07-14T07:26:32Z</time>
      </trkpt>
      <trkpt lat="42.84012" lon="0.20427">
        <ele>2041</ele>
        <time>2020-07-14T07:26:43Z</time>
      </trkpt>
      <trkpt lat="42.84002" lon="0.20428">
        <ele>2042</ele>
        <time>2020-07-14T07:26:56Z</time>
      </trkpt>
      <trkpt lat="42.83993" lon="0.20429">
        <ele>2046</ele>
        <time>2020-07-14T07:27:08Z</time>
      </trkpt>
      <trkpt lat="42.83983" lon="0.20434">
        <ele>2045</ele>
        <time>2020-07-14T07:27:18Z</time>
      </trkpt>
      <trkpt lat="42.83991" lon="0.20443">
        <ele>2033</ele>
        <time>2020-07-14T07:31:29Z</time>
      </trkpt>
      <trkpt lat="42.83981" lon="0.2044">
        <ele>2031</ele>
        <time>2020-07-14T07:33:36Z</time>
      </trkpt>
      <trkpt lat="42.83971" lon="0.20441">
        <ele>2031</ele>
        <time>2020-07-14T07:34:27Z</time>
      </trkpt>
      <trkpt lat="42.83961" lon="0.20443">
        <ele>2032</ele>
        <time>2020-07-14T07:34:34Z</time>
      </trkpt>
      <trkpt lat="42.83952" lon="0.20443">
        <ele>2030</ele>
        <time>2020-07-14T07:34:40Z</time>
      </trkpt>
      <trkpt lat="42.83942" lon="0.2044">
        <ele>2030</ele>
        <time>2020-07-14T07:34:49Z</time>
      </trkpt>
      <trkpt lat="42.83933" lon="0.20435">
        <ele>2025</ele>
        <time>2020-07-14T07:34:59Z</time>
      </trkpt>
      <trkpt lat="42.83925" lon="0.2043">
        <ele>2027</ele>
        <time>2020-07-14T07:35:16Z</time>
      </trkpt>
      <trkpt lat="42.83918" lon="0.2042">
        <ele>2030</ele>
        <time>2020-07-14T07:35:40Z</time>
      </trkpt>
      <trkpt lat="42.83911" lon="0.20413">
        <ele>2032</ele>
        <time>2020-07-14T07:36:02Z</time>
      </trkpt>
      <trkpt lat="42.83927" lon="0.20417">
        <ele>2031</ele>
        <time>2020-07-14T07:36:32Z</time>
      </trkpt>
      <trkpt lat="42.83916" lon="0.20415">
        <ele>2031</ele>
        <time>2020-07-14T07:36:37Z</time>
      </trkpt>
      <trkpt lat="42.83907" lon="0.20413">
        <ele>2031</ele>
        <time>2020-07-14T07:36:55Z</time>
      </trkpt>
      <trkpt lat="42.83898" lon="0.20409">
        <ele>2031</ele>
        <time>2020-07-14T07:37:08Z</time>
      </trkpt>
      <trkpt lat="42.83894" lon="0.20397">
        <ele>2026</ele>
        <time>2020-07-14T07:37:23Z</time>
      </trkpt>
      <trkpt lat="42.83883" lon="0.20408">
        <ele>2017</ele>
        <time>2020-07-14T07:37:44Z</time>
      </trkpt>
      <trkpt lat="42.83874" lon="0.20412">
        <ele>2016</ele>
        <time>2020-07-14T07:37:55Z</time>
      </trkpt>
      <trkpt lat="42.83865" lon="0.20415">
        <ele>2015</ele>
        <time>2020-07-14T07:38:08Z</time>
      </trkpt>
      <trkpt lat="42.83856" lon="0.20416">
        <ele>2012</ele>
        <time>2020-07-14T07:38:29Z</time>
      </trkpt>
      <trkpt lat="42.83847" lon="0.20421">
        <ele>2010</ele>
        <time>2020-07-14T07:38:43Z</time>
      </trkpt>
      <trkpt lat="42.83838" lon="0.20423">
        <ele>2007</ele>
        <time>2020-07-14T07:38:54Z</time>
      </trkpt>
      <trkpt lat="42.83828" lon="0.20426">
        <ele>2003</ele>
        <time>2020-07-14T07:39:10Z</time>
      </trkpt>
      <trkpt lat="42.83819" lon="0.20425">
        <ele>2002</ele>
        <time>2020-07-14T07:39:31Z</time>
      </trkpt>
      <trkpt lat="42.83811" lon="0.20413">
        <ele>2002</ele>
        <time>2020-07-14T07:40:05Z</time>
      </trkpt>
      <trkpt lat="42.83801" lon="0.20414">
        <ele>2004</ele>
        <time>2020-07-14T07:40:21Z</time>
      </trkpt>
      <trkpt lat="42.838" lon="0.20427">
        <ele>1999</ele>
        <time>2020-07-14T07:40:46Z</time>
      </trkpt>
      <trkpt lat="42.83792" lon="0.20433">
        <ele>1999</ele>
        <time>2020-07-14T07:40:57Z</time>
      </trkpt>
      <trkpt lat="42.83783" lon="0.20437">
        <ele>1997</ele>
        <time>2020-07-14T07:41:07Z</time>
      </trkpt>
      <trkpt lat="42.83773" lon="0.20436">
        <ele>1995</ele>
        <time>2020-07-14T07:41:17Z</time>
      </trkpt>
      <trkpt lat="42.83764" lon="0.20429">
        <ele>1999</ele>
        <time>2020-07-14T07:41:25Z</time>
      </trkpt>
      <trkpt lat="42.83754" lon="0.2041">
        <ele>1995</ele>
        <time>2020-07-14T07:41:50Z</time>
      </trkpt>
      <trkpt lat="42.83746" lon="0.20403">
        <ele>1990</ele>
        <time>2020-07-14T07:42:08Z</time>
      </trkpt>
      <trkpt lat="42.83733" lon="0.20404">
        <ele>1990</ele>
        <time>2020-07-14T07:42:47Z</time>
      </trkpt>
      <trkpt lat="42.83724" lon="0.20409">
        <ele>1984</ele>
        <time>2020-07-14T07:42:55Z</time>
      </trkpt>
      <trkpt lat="42.83717" lon="0.20417">
        <ele>1981</ele>
        <time>2020-07-14T07:43:03Z</time>
      </trkpt>
      <trkpt lat="42.83708" lon="0.20422">
        <ele>1974</ele>
        <time>2020-07-14T07:43:19Z</time>
      </trkpt>
      <trkpt lat="42.83699" lon="0.20425">
        <ele>1976</ele>
        <time>2020-07-14T07:43:33Z</time>
      </trkpt>
      <trkpt lat="42.83689" lon="0.20424">
        <ele>1977</ele>
        <time>2020-07-14T07:43:45Z</time>
      </trkpt>
      <trkpt lat="42.8368" lon="0.20426">
        <ele>1970</ele>
        <time>2020-07-14T07:43:59Z</time>
      </trkpt>
      <trkpt lat="42.83669" lon="0.20428">
        <ele>1969</ele>
        <time>2020-07-14T07:44:18Z</time>
      </trkpt>
      <trkpt lat="42.83657" lon="0.2042">
        <ele>1961</ele>
        <time>2020-07-14T07:45:14Z</time>
      </trkpt>
      <trkpt lat="42.83654" lon="0.20408">
        <ele>1957</ele>
        <time>2020-07-14T07:45:28Z</time>
      </trkpt>
      <trkpt lat="42.83655" lon="0.20396">
        <ele>1959</ele>
        <time>2020-07-14T07:45:38Z</time>
      </trkpt>
      <trkpt lat="42.83663" lon="0.20384">
        <ele>1957</ele>
        <time>2020-07-14T07:45:56Z</time>
      </trkpt>
      <trkpt lat="42.83672" lon="0.20375">
        <ele>1955</ele>
        <time>2020-07-14T07:46:05Z</time>
      </trkpt>
      <trkpt lat="42.83675" lon="0.20363">
        <ele>1953</ele>
        <time>2020-07-14T07:46:18Z</time>
      </trkpt>
      <trkpt lat="42.8368" lon="0.20352">
        <ele>1954</ele>
        <time>2020-07-14T07:46:29Z</time>
      </trkpt>
      <trkpt lat="42.83687" lon="0.20344">
        <ele>1960</ele>
        <time>2020-07-14T07:46:36Z</time>
      </trkpt>
      <trkpt lat="42.83697" lon="0.20341">
        <ele>1964</ele>
        <time>2020-07-14T07:46:41Z</time>
      </trkpt>
      <trkpt lat="42.83706" lon="0.2034">
        <ele>1962</ele>
        <time>2020-07-14T07:46:47Z</time>
      </trkpt>
      <trkpt lat="42.83715" lon="0.20338">
        <ele>1962</ele>
        <time>2020-07-14T07:46:53Z</time>
      </trkpt>
      <trkpt lat="42.83725" lon="0.20337">
        <ele>1965</ele>
        <time>2020-07-14T07:47:01Z</time>
      </trkpt>
      <trkpt lat="42.83735" lon="0.20334">
        <ele>1964</ele>
        <time>2020-07-14T07:47:09Z</time>
      </trkpt>
      <trkpt lat="42.83745" lon="0.2033">
        <ele>1964</ele>
        <time>2020-07-14T07:47:19Z</time>
      </trkpt>
      <trkpt lat="42.83753" lon="0.20323">
        <ele>1959</ele>
        <time>2020-07-14T07:47:29Z</time>
      </trkpt>
      <trkpt lat="42.83759" lon="0.20312">
        <ele>1952</ele>
        <time>2020-07-14T07:47:41Z</time>
      </trkpt>
      <trkpt lat="42.83764" lon="0.20301">
        <ele>1951</ele>
        <time>2020-07-14T07:47:51Z</time>
      </trkpt>
      <trkpt lat="42.83773" lon="0.20298">
        <ele>1955</ele>
        <time>2020-07-14T07:48:04Z</time>
      </trkpt>
      <trkpt lat="42.83782" lon="0.203">
        <ele>1952</ele>
        <time>2020-07-14T07:48:13Z</time>
      </trkpt>
      <trkpt lat="42.83791" lon="0.20302">
        <ele>1950</ele>
        <time>2020-07-14T07:48:26Z</time>
      </trkpt>
      <trkpt lat="42.83798" lon="0.20293">
        <ele>1944</ele>
        <time>2020-07-14T07:48:39Z</time>
      </trkpt>
      <trkpt lat="42.83805" lon="0.20284">
        <ele>1944</ele>
        <time>2020-07-14T07:48:52Z</time>
      </trkpt>
      <trkpt lat="42.8381" lon="0.20274">
        <ele>1940</ele>
        <time>2020-07-14T07:49:03Z</time>
      </trkpt>
      <trkpt lat="42.83818" lon="0.20269">
        <ele>1937</ele>
        <time>2020-07-14T07:49:17Z</time>
      </trkpt>
      <trkpt lat="42.83828" lon="0.20266">
        <ele>1934</ele>
        <time>2020-07-14T07:49:32Z</time>
      </trkpt>
      <trkpt lat="42.83817" lon="0.20265">
        <ele>1933</ele>
        <time>2020-07-14T07:49:53Z</time>
      </trkpt>
      <trkpt lat="42.83826" lon="0.20252">
        <ele>1931</ele>
        <time>2020-07-14T07:53:04Z</time>
      </trkpt>
      <trkpt lat="42.83835" lon="0.20246">
        <ele>1932</ele>
        <time>2020-07-14T07:53:10Z</time>
      </trkpt>
      <trkpt lat="42.83844" lon="0.2024">
        <ele>1931</ele>
        <time>2020-07-14T07:53:16Z</time>
      </trkpt>
      <trkpt lat="42.83853" lon="0.20233">
        <ele>1933</ele>
        <time>2020-07-14T07:53:23Z</time>
      </trkpt>
      <trkpt lat="42.83863" lon="0.20227">
        <ele>1927</ele>
        <time>2020-07-14T07:53:31Z</time>
      </trkpt>
      <trkpt lat="42.83872" lon="0.20223">
        <ele>1929</ele>
        <time>2020-07-14T07:53:38Z</time>
      </trkpt>
      <trkpt lat="42.83881" lon="0.20215">
        <ele>1930</ele>
        <time>2020-07-14T07:53:46Z</time>
      </trkpt>
      <trkpt lat="42.83889" lon="0.20209">
        <ele>1925</ele>
        <time>2020-07-14T07:53:55Z</time>
      </trkpt>
      <trkpt lat="42.83897" lon="0.20201">
        <ele>1925</ele>
        <time>2020-07-14T07:54:03Z</time>
      </trkpt>
      <trkpt lat="42.83903" lon="0.20191">
        <ele>1918</ele>
        <time>2020-07-14T07:54:14Z</time>
      </trkpt>
      <trkpt lat="42.83908" lon="0.2018">
        <ele>1915</ele>
        <time>2020-07-14T07:54:24Z</time>
      </trkpt>
      <trkpt lat="42.83915" lon="0.20171">
        <ele>1917</ele>
        <time>2020-07-14T07:54:34Z</time>
      </trkpt>
      <trkpt lat="42.83924" lon="0.20166">
        <ele>1914</ele>
        <time>2020-07-14T07:54:43Z</time>
      </trkpt>
      <trkpt lat="42.8393" lon="0.20156">
        <ele>1913</ele>
        <time>2020-07-14T07:54:55Z</time>
      </trkpt>
      <trkpt lat="42.83938" lon="0.20147">
        <ele>1908</ele>
        <time>2020-07-14T07:55:04Z</time>
      </trkpt>
      <trkpt lat="42.83945" lon="0.20138">
        <ele>1914</ele>
        <time>2020-07-14T07:55:13Z</time>
      </trkpt>
      <trkpt lat="42.83954" lon="0.20134">
        <ele>1913</ele>
        <time>2020-07-14T07:55:21Z</time>
      </trkpt>
      <trkpt lat="42.83963" lon="0.20131">
        <ele>1908</ele>
        <time>2020-07-14T07:55:30Z</time>
      </trkpt>
      <trkpt lat="42.83973" lon="0.20126">
        <ele>1911</ele>
        <time>2020-07-14T07:55:38Z</time>
      </trkpt>
      <trkpt lat="42.83981" lon="0.2012">
        <ele>1910</ele>
        <time>2020-07-14T07:55:46Z</time>
      </trkpt>
      <trkpt lat="42.83989" lon="0.2011">
        <ele>1908</ele>
        <time>2020-07-14T07:55:55Z</time>
      </trkpt>
      <trkpt lat="42.83995" lon="0.201">
        <ele>1907</ele>
        <time>2020-07-14T07:56:03Z</time>
      </trkpt>
      <trkpt lat="42.84" lon="0.20089">
        <ele>1900</ele>
        <time>2020-07-14T07:56:12Z</time>
      </trkpt>
      <trkpt lat="42.84007" lon="0.20081">
        <ele>1903</ele>
        <time>2020-07-14T07:56:22Z</time>
      </trkpt>
      <trkpt lat="42.84016" lon="0.20075">
        <ele>1898</ele>
        <time>2020-07-14T07:56:32Z</time>
      </trkpt>
      <trkpt lat="42.84025" lon="0.20073">
        <ele>1893</ele>
        <time>2020-07-14T07:56:43Z</time>
      </trkpt>
      <trkpt lat="42.84029" lon="0.20055">
        <ele>1891</ele>
        <time>2020-07-14T07:58:33Z</time>
      </trkpt>
      <trkpt lat="42.84034" lon="0.20045">
        <ele>1894</ele>
        <time>2020-07-14T07:58:39Z</time>
      </trkpt>
      <trkpt lat="42.84039" lon="0.20034">
        <ele>1890</ele>
        <time>2020-07-14T07:58:46Z</time>
      </trkpt>
      <trkpt lat="42.84044" lon="0.20022">
        <ele>1890</ele>
        <time>2020-07-14T07:58:56Z</time>
      </trkpt>
      <trkpt lat="42.8404" lon="0.20009">
        <ele>1887</ele>
        <time>2020-07-14T07:59:12Z</time>
      </trkpt>
      <trkpt lat="42.8404" lon="0.19996">
        <ele>1881</ele>
        <time>2020-07-14T07:59:26Z</time>
      </trkpt>
      <trkpt lat="42.84046" lon="0.19986">
        <ele>1874</ele>
        <time>2020-07-14T07:59:37Z</time>
      </trkpt>
      <trkpt lat="42.84055" lon="0.19978">
        <ele>1874</ele>
        <time>2020-07-14T07:59:46Z</time>
      </trkpt>
      <trkpt lat="42.84046" lon="0.19968">
        <ele>1867</ele>
        <time>2020-07-14T08:00:18Z</time>
      </trkpt>
      <trkpt lat="42.84037" lon="0.19967">
        <ele>1863</ele>
        <time>2020-07-14T08:00:28Z</time>
      </trkpt>
      <trkpt lat="42.84028" lon="0.19962">
        <ele>1864</ele>
        <time>2020-07-14T08:00:38Z</time>
      </trkpt>
      <trkpt lat="42.84022" lon="0.19953">
        <ele>1864</ele>
        <time>2020-07-14T08:00:51Z</time>
      </trkpt>
      <trkpt lat="42.84021" lon="0.1994">
        <ele>1862</ele>
        <time>2020-07-14T08:01:02Z</time>
      </trkpt>
      <trkpt lat="42.84023" lon="0.19928">
        <ele>1860</ele>
        <time>2020-07-14T08:01:14Z</time>
      </trkpt>
      <trkpt lat="42.84023" lon="0.19911">
        <ele>1850</ele>
        <time>2020-07-14T08:01:33Z</time>
      </trkpt>
      <trkpt lat="42.84014" lon="0.19906">
        <ele>1848</ele>
        <time>2020-07-14T08:01:44Z</time>
      </trkpt>
      <trkpt lat="42.84011" lon="0.19918">
        <ele>1846</ele>
        <time>2020-07-14T08:02:05Z</time>
      </trkpt>
      <trkpt lat="42.84011" lon="0.19905">
        <ele>1845</ele>
        <time>2020-07-14T08:05:17Z</time>
      </trkpt>
      <trkpt lat="42.84009" lon="0.19892">
        <ele>1846</ele>
        <time>2020-07-14T08:05:25Z</time>
      </trkpt>
      <trkpt lat="42.84007" lon="0.19877">
        <ele>1845</ele>
        <time>2020-07-14T08:05:32Z</time>
      </trkpt>
      <trkpt lat="42.84007" lon="0.19865">
        <ele>1844</ele>
        <time>2020-07-14T08:05:39Z</time>
      </trkpt>
      <trkpt lat="42.84003" lon="0.19851">
        <ele>1847</ele>
        <time>2020-07-14T08:06:05Z</time>
      </trkpt>
      <trkpt lat="42.83997" lon="0.19841">
        <ele>1848</ele>
        <time>2020-07-14T08:06:17Z</time>
      </trkpt>
      <trkpt lat="42.83992" lon="0.1983">
        <ele>1845</ele>
        <time>2020-07-14T08:06:45Z</time>
      </trkpt>
      <trkpt lat="42.83982" lon="0.19817">
        <ele>1843</ele>
        <time>2020-07-14T08:07:01Z</time>
      </trkpt>
      <trkpt lat="42.83973" lon="0.1981">
        <ele>1837</ele>
        <time>2020-07-14T08:07:09Z</time>
      </trkpt>
      <trkpt lat="42.83966" lon="0.19801">
        <ele>1835</ele>
        <time>2020-07-14T08:07:17Z</time>
      </trkpt>
      <trkpt lat="42.83961" lon="0.19791">
        <ele>1834</ele>
        <time>2020-07-14T08:07:26Z</time>
      </trkpt>
      <trkpt lat="42.83962" lon="0.19778">
        <ele>1828</ele>
        <time>2020-07-14T08:07:36Z</time>
      </trkpt>
      <trkpt lat="42.83966" lon="0.19767">
        <ele>1827</ele>
        <time>2020-07-14T08:08:03Z</time>
      </trkpt>
      <trkpt lat="42.83965" lon="0.19753">
        <ele>1827</ele>
        <time>2020-07-14T08:08:17Z</time>
      </trkpt>
      <trkpt lat="42.83957" lon="0.19764">
        <ele>1828</ele>
        <time>2020-07-14T08:08:54Z</time>
      </trkpt>
      <trkpt lat="42.8395" lon="0.19757">
        <ele>1827</ele>
        <time>2020-07-14T08:09:15Z</time>
      </trkpt>
      <trkpt lat="42.83941" lon="0.19754">
        <ele>1827</ele>
        <time>2020-07-14T08:09:23Z</time>
      </trkpt>
      <trkpt lat="42.83931" lon="0.19755">
        <ele>1823</ele>
        <time>2020-07-14T08:09:32Z</time>
      </trkpt>
      <trkpt lat="42.83941" lon="0.1976">
        <ele>1828</ele>
        <time>2020-07-14T08:14:22Z</time>
      </trkpt>
      <trkpt lat="42.83951" lon="0.19764">
        <ele>1828</ele>
        <time>2020-07-14T08:14:36Z</time>
      </trkpt>
      <trkpt lat="42.83961" lon="0.19765">
        <ele>1824</ele>
        <time>2020-07-14T08:14:46Z</time>
      </trkpt>
      <trkpt lat="42.8397" lon="0.19761">
        <ele>1824</ele>
        <time>2020-07-14T08:14:55Z</time>
      </trkpt>
      <trkpt lat="42.83978" lon="0.19752">
        <ele>1822</ele>
        <time>2020-07-14T08:15:02Z</time>
      </trkpt>
      <trkpt lat="42.83983" lon="0.19741">
        <ele>1824</ele>
        <time>2020-07-14T08:15:09Z</time>
      </trkpt>
      <trkpt lat="42.83986" lon="0.19728">
        <ele>1825</ele>
        <time>2020-07-14T08:15:16Z</time>
      </trkpt>
      <trkpt lat="42.83989" lon="0.19715">
        <ele>1824</ele>
        <time>2020-07-14T08:15:24Z</time>
      </trkpt>
      <trkpt lat="42.83992" lon="0.19702">
        <ele>1825</ele>
        <time>2020-07-14T08:15:33Z</time>
      </trkpt>
      <trkpt lat="42.83998" lon="0.19692">
        <ele>1827</ele>
        <time>2020-07-14T08:15:44Z</time>
      </trkpt>
      <trkpt lat="42.84005" lon="0.19685">
        <ele>1823</ele>
        <time>2020-07-14T08:15:54Z</time>
      </trkpt>
      <trkpt lat="42.84013" lon="0.19677">
        <ele>1829</ele>
        <time>2020-07-14T08:16:06Z</time>
      </trkpt>
      <trkpt lat="42.84014" lon="0.19665">
        <ele>1833</ele>
        <time>2020-07-14T08:16:18Z</time>
      </trkpt>
      <trkpt lat="42.84011" lon="0.19652">
        <ele>1831</ele>
        <time>2020-07-14T08:16:29Z</time>
      </trkpt>
      <trkpt lat="42.84006" lon="0.19642">
        <ele>1832</ele>
        <time>2020-07-14T08:16:42Z</time>
      </trkpt>
      <trkpt lat="42.84003" lon="0.19629">
        <ele>1826</ele>
        <time>2020-07-14T08:16:54Z</time>
      </trkpt>
      <trkpt lat="42.84001" lon="0.19616">
        <ele>1832</ele>
        <time>2020-07-14T08:17:04Z</time>
      </trkpt>
      <trkpt lat="42.83997" lon="0.19604">
        <ele>1833</ele>
        <time>2020-07-14T08:17:13Z</time>
      </trkpt>
      <trkpt lat="42.83992" lon="0.19593">
        <ele>1829</ele>
        <time>2020-07-14T08:17:23Z</time>
      </trkpt>
      <trkpt lat="42.83986" lon="0.19582">
        <ele>1831</ele>
        <time>2020-07-14T08:17:32Z</time>
      </trkpt>
      <trkpt lat="42.83978" lon="0.19575">
        <ele>1832</ele>
        <time>2020-07-14T08:17:39Z</time>
      </trkpt>
      <trkpt lat="42.83969" lon="0.19572">
        <ele>1830</ele>
        <time>2020-07-14T08:17:46Z</time>
      </trkpt>
      <trkpt lat="42.83959" lon="0.19572">
        <ele>1829</ele>
        <time>2020-07-14T08:17:54Z</time>
      </trkpt>
      <trkpt lat="42.8395" lon="0.19573">
        <ele>1829</ele>
        <time>2020-07-14T08:18:02Z</time>
      </trkpt>
      <trkpt lat="42.8394" lon="0.19576">
        <ele>1827</ele>
        <time>2020-07-14T08:18:09Z</time>
      </trkpt>
      <trkpt lat="42.83932" lon="0.19584">
        <ele>1829</ele>
        <time>2020-07-14T08:18:16Z</time>
      </trkpt>
      <trkpt lat="42.83923" lon="0.19592">
        <ele>1830</ele>
        <time>2020-07-14T08:18:25Z</time>
      </trkpt>
      <trkpt lat="42.83915" lon="0.19597">
        <ele>1831</ele>
        <time>2020-07-14T08:18:32Z</time>
      </trkpt>
      <trkpt lat="42.83905" lon="0.196">
        <ele>1831</ele>
        <time>2020-07-14T08:18:40Z</time>
      </trkpt>
      <trkpt lat="42.83895" lon="0.196">
        <ele>1833</ele>
        <time>2020-07-14T08:18:48Z</time>
      </trkpt>
      <trkpt lat="42.83885" lon="0.19601">
        <ele>1832</ele>
        <time>2020-07-14T08:18:56Z</time>
      </trkpt>
      <trkpt lat="42.83875" lon="0.19602">
        <ele>1835</ele>
        <time>2020-07-14T08:19:03Z</time>
      </trkpt>
      <trkpt lat="42.83866" lon="0.19605">
        <ele>1836</ele>
        <time>2020-07-14T08:19:11Z</time>
      </trkpt>
      <trkpt lat="42.83857" lon="0.19608">
        <ele>1832</ele>
        <time>2020-07-14T08:19:21Z</time>
      </trkpt>
      <trkpt lat="42.83848" lon="0.19612">
        <ele>1835</ele>
        <time>2020-07-14T08:19:30Z</time>
      </trkpt>
      <trkpt lat="42.83838" lon="0.19612">
        <ele>1834</ele>
        <time>2020-07-14T08:19:40Z</time>
      </trkpt>
      <trkpt lat="42.83829" lon="0.19616">
        <ele>1834</ele>
        <time>2020-07-14T08:19:49Z</time>
      </trkpt>
      <trkpt lat="42.8382" lon="0.1962">
        <ele>1840</ele>
        <time>2020-07-14T08:19:58Z</time>
      </trkpt>
      <trkpt lat="42.83811" lon="0.19625">
        <ele>1837</ele>
        <time>2020-07-14T08:20:07Z</time>
      </trkpt>
      <trkpt lat="42.83801" lon="0.19629">
        <ele>1837</ele>
        <time>2020-07-14T08:20:15Z</time>
      </trkpt>
      <trkpt lat="42.83792" lon="0.19632">
        <ele>1839</ele>
        <time>2020-07-14T08:20:24Z</time>
      </trkpt>
      <trkpt lat="42.83783" lon="0.19635">
        <ele>1839</ele>
        <time>2020-07-14T08:20:32Z</time>
      </trkpt>
      <trkpt lat="42.83773" lon="0.19638">
        <ele>1837</ele>
        <time>2020-07-14T08:20:41Z</time>
      </trkpt>
      <trkpt lat="42.83764" lon="0.19641">
        <ele>1837</ele>
        <time>2020-07-14T08:20:50Z</time>
      </trkpt>
      <trkpt lat="42.83754" lon="0.19642">
        <ele>1833</ele>
        <time>2020-07-14T08:20:58Z</time>
      </trkpt>
      <trkpt lat="42.83744" lon="0.19643">
        <ele>1835</ele>
        <time>2020-07-14T08:21:06Z</time>
      </trkpt>
      <trkpt lat="42.83735" lon="0.19639">
        <ele>1836</ele>
        <time>2020-07-14T08:21:14Z</time>
      </trkpt>
      <trkpt lat="42.83725" lon="0.19636">
        <ele>1836</ele>
        <time>2020-07-14T08:21:22Z</time>
      </trkpt>
      <trkpt lat="42.83716" lon="0.19633">
        <ele>1837</ele>
        <time>2020-07-14T08:21:31Z</time>
      </trkpt>
      <trkpt lat="42.83707" lon="0.19632">
        <ele>1839</ele>
        <time>2020-07-14T08:21:39Z</time>
      </trkpt>
      <trkpt lat="42.83697" lon="0.19633">
        <ele>1842</ele>
        <time>2020-07-14T08:21:48Z</time>
      </trkpt>
      <trkpt lat="42.83688" lon="0.19636">
        <ele>1845</ele>
        <time>2020-07-14T08:21:57Z</time>
      </trkpt>
      <trkpt lat="42.83679" lon="0.19642">
        <ele>1844</ele>
        <time>2020-07-14T08:22:07Z</time>
      </trkpt>
      <trkpt lat="42.8367" lon="0.19647">
        <ele>1847</ele>
        <time>2020-07-14T08:22:16Z</time>
      </trkpt>
      <trkpt lat="42.8366" lon="0.19647">
        <ele>1846</ele>
        <time>2020-07-14T08:22:24Z</time>
      </trkpt>
      <trkpt lat="42.8365" lon="0.1965">
        <ele>1841</ele>
        <time>2020-07-14T08:22:33Z</time>
      </trkpt>
      <trkpt lat="42.83642" lon="0.19657">
        <ele>1842</ele>
        <time>2020-07-14T08:22:43Z</time>
      </trkpt>
      <trkpt lat="42.83634" lon="0.19664">
        <ele>1842</ele>
        <time>2020-07-14T08:22:51Z</time>
      </trkpt>
      <trkpt lat="42.83625" lon="0.19668">
        <ele>1844</ele>
        <time>2020-07-14T08:22:58Z</time>
      </trkpt>
      <trkpt lat="42.83615" lon="0.19667">
        <ele>1840</ele>
        <time>2020-07-14T08:23:07Z</time>
      </trkpt>
      <trkpt lat="42.83606" lon="0.19661">
        <ele>1837</ele>
        <time>2020-07-14T08:23:15Z</time>
      </trkpt>
      <trkpt lat="42.83598" lon="0.19656">
        <ele>1841</ele>
        <time>2020-07-14T08:23:24Z</time>
      </trkpt>
      <trkpt lat="42.8359" lon="0.19648">
        <ele>1839</ele>
        <time>2020-07-14T08:23:33Z</time>
      </trkpt>
      <trkpt lat="42.83581" lon="0.19642">
        <ele>1839</ele>
        <time>2020-07-14T08:23:43Z</time>
      </trkpt>
      <trkpt lat="42.83571" lon="0.19639">
        <ele>1840</ele>
        <time>2020-07-14T08:23:52Z</time>
      </trkpt>
      <trkpt lat="42.83561" lon="0.19639">
        <ele>1841</ele>
        <time>2020-07-14T08:24:00Z</time>
      </trkpt>
      <trkpt lat="42.83552" lon="0.19642">
        <ele>1839</ele>
        <time>2020-07-14T08:24:07Z</time>
      </trkpt>
      <trkpt lat="42.83542" lon="0.19647">
        <ele>1837</ele>
        <time>2020-07-14T08:24:15Z</time>
      </trkpt>
      <trkpt lat="42.83533" lon="0.1965">
        <ele>1836</ele>
        <time>2020-07-14T08:24:22Z</time>
      </trkpt>
      <trkpt lat="42.83524" lon="0.19653">
        <ele>1836</ele>
        <time>2020-07-14T08:24:31Z</time>
      </trkpt>
      <trkpt lat="42.83514" lon="0.19651">
        <ele>1831</ele>
        <time>2020-07-14T08:24:40Z</time>
      </trkpt>
      <trkpt lat="42.83505" lon="0.1965">
        <ele>1830</ele>
        <time>2020-07-14T08:24:49Z</time>
      </trkpt>
      <trkpt lat="42.83494" lon="0.1965">
        <ele>1835</ele>
        <time>2020-07-14T08:24:59Z</time>
      </trkpt>
      <trkpt lat="42.83485" lon="0.19649">
        <ele>1831</ele>
        <time>2020-07-14T08:25:07Z</time>
      </trkpt>
      <trkpt lat="42.83475" lon="0.19644">
        <ele>1826</ele>
        <time>2020-07-14T08:25:16Z</time>
      </trkpt>
      <trkpt lat="42.83467" lon="0.19637">
        <ele>1825</ele>
        <time>2020-07-14T08:25:26Z</time>
      </trkpt>
      <trkpt lat="42.83458" lon="0.19631">
        <ele>1827</ele>
        <time>2020-07-14T08:25:34Z</time>
      </trkpt>
      <trkpt lat="42.83449" lon="0.19628">
        <ele>1826</ele>
        <time>2020-07-14T08:25:43Z</time>
      </trkpt>
      <trkpt lat="42.83438" lon="0.1963">
        <ele>1826</ele>
        <time>2020-07-14T08:25:53Z</time>
      </trkpt>
      <trkpt lat="42.83428" lon="0.19633">
        <ele>1828</ele>
        <time>2020-07-14T08:26:02Z</time>
      </trkpt>
      <trkpt lat="42.83437" lon="0.19629">
        <ele>1833</ele>
        <time>2020-07-14T08:26:27Z</time>
      </trkpt>
      <trkpt lat="42.83446" lon="0.19622">
        <ele>1829</ele>
        <time>2020-07-14T08:26:39Z</time>
      </trkpt>
      <trkpt lat="42.83436" lon="0.19623">
        <ele>1830</ele>
        <time>2020-07-14T08:26:56Z</time>
      </trkpt>
      <trkpt lat="42.83423" lon="0.19625">
        <ele>1829</ele>
        <time>2020-07-14T08:27:00Z</time>
      </trkpt>
      <trkpt lat="42.83412" lon="0.1962">
        <ele>1835</ele>
        <time>2020-07-14T08:27:11Z</time>
      </trkpt>
      <trkpt lat="42.83397" lon="0.19644">
        <ele>1836</ele>
        <time>2020-07-14T08:27:20Z</time>
      </trkpt>
      <trkpt lat="42.8339" lon="0.19662">
        <ele>1836</ele>
        <time>2020-07-14T08:27:23Z</time>
      </trkpt>
      <trkpt lat="42.83379" lon="0.19666">
        <ele>1841</ele>
        <time>2020-07-14T08:28:19Z</time>
      </trkpt>
      <trkpt lat="42.83369" lon="0.19669">
        <ele>1845</ele>
        <time>2020-07-14T08:28:29Z</time>
      </trkpt>
      <trkpt lat="42.83359" lon="0.19672">
        <ele>1843</ele>
        <time>2020-07-14T08:28:35Z</time>
      </trkpt>
      <trkpt lat="42.8335" lon="0.19676">
        <ele>1841</ele>
        <time>2020-07-14T08:28:40Z</time>
      </trkpt>
      <trkpt lat="42.8334" lon="0.1968">
        <ele>1834</ele>
        <time>2020-07-14T08:28:45Z</time>
      </trkpt>
      <trkpt lat="42.8333" lon="0.19685">
        <ele>1838</ele>
        <time>2020-07-14T08:28:51Z</time>
      </trkpt>
      <trkpt lat="42.83321" lon="0.19691">
        <ele>1837</ele>
        <time>2020-07-14T08:28:57Z</time>
      </trkpt>
      <trkpt lat="42.83312" lon="0.19698">
        <ele>1833</ele>
        <time>2020-07-14T08:29:05Z</time>
      </trkpt>
      <trkpt lat="42.83303" lon="0.19703">
        <ele>1837</ele>
        <time>2020-07-14T08:29:12Z</time>
      </trkpt>
      <trkpt lat="42.83294" lon="0.19706">
        <ele>1839</ele>
        <time>2020-07-14T08:29:21Z</time>
      </trkpt>
      <trkpt lat="42.83285" lon="0.19711">
        <ele>1834</ele>
        <time>2020-07-14T08:29:30Z</time>
      </trkpt>
      <trkpt lat="42.83276" lon="0.19716">
        <ele>1835</ele>
        <time>2020-07-14T08:29:39Z</time>
      </trkpt>
      <trkpt lat="42.83275" lon="0.19731">
        <ele>1841</ele>
        <time>2020-07-14T08:30:41Z</time>
      </trkpt>
      <trkpt lat="42.83265" lon="0.19734">
        <ele>1839</ele>
        <time>2020-07-14T08:30:46Z</time>
      </trkpt>
      <trkpt lat="42.83255" lon="0.19738">
        <ele>1841</ele>
        <time>2020-07-14T08:30:51Z</time>
      </trkpt>
      <trkpt lat="42.83246" lon="0.1974">
        <ele>1838</ele>
        <time>2020-07-14T08:30:55Z</time>
      </trkpt>
      <trkpt lat="42.83233" lon="0.1974">
        <ele>1835</ele>
        <time>2020-07-14T08:31:00Z</time>
      </trkpt>
      <trkpt lat="42.83223" lon="0.19739">
        <ele>1835</ele>
        <time>2020-07-14T08:31:04Z</time>
      </trkpt>
      <trkpt lat="42.83213" lon="0.19737">
        <ele>1835</ele>
        <time>2020-07-14T08:31:08Z</time>
      </trkpt>
      <trkpt lat="42.83204" lon="0.19733">
        <ele>1838</ele>
        <time>2020-07-14T08:31:13Z</time>
      </trkpt>
      <trkpt lat="42.83195" lon="0.19727">
        <ele>1837</ele>
        <time>2020-07-14T08:31:18Z</time>
      </trkpt>
      <trkpt lat="42.83186" lon="0.19721">
        <ele>1839</ele>
        <time>2020-07-14T08:31:25Z</time>
      </trkpt>
      <trkpt lat="42.83178" lon="0.19713">
        <ele>1839</ele>
        <time>2020-07-14T08:31:34Z</time>
      </trkpt>
      <trkpt lat="42.83171" lon="0.19706">
        <ele>1840</ele>
        <time>2020-07-14T08:31:42Z</time>
      </trkpt>
      <trkpt lat="42.83163" lon="0.19698">
        <ele>1840</ele>
        <time>2020-07-14T08:31:53Z</time>
      </trkpt>
      <trkpt lat="42.8316" lon="0.19685">
        <ele>1839</ele>
        <time>2020-07-14T08:32:23Z</time>
      </trkpt>
      <trkpt lat="42.83156" lon="0.19674">
        <ele>1844</ele>
        <time>2020-07-14T08:33:11Z</time>
      </trkpt>
      <trkpt lat="42.83155" lon="0.19656">
        <ele>1850</ele>
        <time>2020-07-14T08:33:37Z</time>
      </trkpt>
      <trkpt lat="42.83159" lon="0.19644">
        <ele>1851</ele>
        <time>2020-07-14T08:33:53Z</time>
      </trkpt>
      <trkpt lat="42.83165" lon="0.19635">
        <ele>1856</ele>
        <time>2020-07-14T08:34:08Z</time>
      </trkpt>
      <trkpt lat="42.83166" lon="0.19649">
        <ele>1856</ele>
        <time>2020-07-14T08:34:38Z</time>
      </trkpt>
      <trkpt lat="42.83166" lon="0.19636">
        <ele>1868</ele>
        <time>2020-07-14T08:35:54Z</time>
      </trkpt>
      <trkpt lat="42.8317" lon="0.19624">
        <ele>1871</ele>
        <time>2020-07-14T08:36:04Z</time>
      </trkpt>
      <trkpt lat="42.83176" lon="0.19613">
        <ele>1877</ele>
        <time>2020-07-14T08:36:14Z</time>
      </trkpt>
      <trkpt lat="42.83182" lon="0.19596">
        <ele>1878</ele>
        <time>2020-07-14T08:36:42Z</time>
      </trkpt>
      <trkpt lat="42.83183" lon="0.19584">
        <ele>1881</ele>
        <time>2020-07-14T08:36:55Z</time>
      </trkpt>
      <trkpt lat="42.83177" lon="0.19569">
        <ele>1902</ele>
        <time>2020-07-14T08:37:59Z</time>
      </trkpt>
      <trkpt lat="42.83169" lon="0.1956">
        <ele>1906</ele>
        <time>2020-07-14T08:38:08Z</time>
      </trkpt>
      <trkpt lat="42.83162" lon="0.19551">
        <ele>1904</ele>
        <time>2020-07-14T08:38:23Z</time>
      </trkpt>
      <trkpt lat="42.8315" lon="0.19546">
        <ele>1911</ele>
        <time>2020-07-14T08:38:37Z</time>
      </trkpt>
      <trkpt lat="42.83141" lon="0.19549">
        <ele>1909</ele>
        <time>2020-07-14T08:38:41Z</time>
      </trkpt>
      <trkpt lat="42.83132" lon="0.19553">
        <ele>1906</ele>
        <time>2020-07-14T08:38:49Z</time>
      </trkpt>
      <trkpt lat="42.83124" lon="0.19559">
        <ele>1904</ele>
        <time>2020-07-14T08:38:58Z</time>
      </trkpt>
      <trkpt lat="42.83115" lon="0.19546">
        <ele>1905</ele>
        <time>2020-07-14T08:39:48Z</time>
      </trkpt>
      <trkpt lat="42.8311" lon="0.19535">
        <ele>1901</ele>
        <time>2020-07-14T08:40:21Z</time>
      </trkpt>
      <trkpt lat="42.83101" lon="0.19531">
        <ele>1900</ele>
        <time>2020-07-14T08:40:31Z</time>
      </trkpt>
      <trkpt lat="42.83092" lon="0.19527">
        <ele>1909</ele>
        <time>2020-07-14T08:40:40Z</time>
      </trkpt>
      <trkpt lat="42.83083" lon="0.19521">
        <ele>1914</ele>
        <time>2020-07-14T08:40:54Z</time>
      </trkpt>
      <trkpt lat="42.83077" lon="0.19511">
        <ele>1918</ele>
        <time>2020-07-14T08:41:08Z</time>
      </trkpt>
      <trkpt lat="42.83075" lon="0.19499">
        <ele>1921</ele>
        <time>2020-07-14T08:41:28Z</time>
      </trkpt>
      <trkpt lat="42.83068" lon="0.1949">
        <ele>1920</ele>
        <time>2020-07-14T08:41:44Z</time>
      </trkpt>
      <trkpt lat="42.83056" lon="0.19486">
        <ele>1924</ele>
        <time>2020-07-14T08:42:12Z</time>
      </trkpt>
      <trkpt lat="42.83048" lon="0.19479">
        <ele>1922</ele>
        <time>2020-07-14T08:42:46Z</time>
      </trkpt>
      <trkpt lat="42.8304" lon="0.19472">
        <ele>1929</ele>
        <time>2020-07-14T08:43:10Z</time>
      </trkpt>
      <trkpt lat="42.83034" lon="0.19462">
        <ele>1938</ele>
        <time>2020-07-14T08:43:30Z</time>
      </trkpt>
      <trkpt lat="42.83038" lon="0.1945">
        <ele>1943</ele>
        <time>2020-07-14T08:43:39Z</time>
      </trkpt>
      <trkpt lat="42.83041" lon="0.19437">
        <ele>1944</ele>
        <time>2020-07-14T08:43:54Z</time>
      </trkpt>
      <trkpt lat="42.83034" lon="0.19428">
        <ele>1944</ele>
        <time>2020-07-14T08:44:14Z</time>
      </trkpt>
      <trkpt lat="42.83025" lon="0.19426">
        <ele>1948</ele>
        <time>2020-07-14T08:44:31Z</time>
      </trkpt>
      <trkpt lat="42.83015" lon="0.19424">
        <ele>1956</ele>
        <time>2020-07-14T08:44:44Z</time>
      </trkpt>
      <trkpt lat="42.83006" lon="0.19423">
        <ele>1954</ele>
        <time>2020-07-14T08:44:57Z</time>
      </trkpt>
      <trkpt lat="42.82997" lon="0.19419">
        <ele>1950</ele>
        <time>2020-07-14T08:45:11Z</time>
      </trkpt>
      <trkpt lat="42.82989" lon="0.19412">
        <ele>1950</ele>
        <time>2020-07-14T08:45:25Z</time>
      </trkpt>
      <trkpt lat="42.82981" lon="0.19407">
        <ele>1955</ele>
        <time>2020-07-14T08:45:40Z</time>
      </trkpt>
      <trkpt lat="42.82972" lon="0.19403">
        <ele>1961</ele>
        <time>2020-07-14T08:46:00Z</time>
      </trkpt>
      <trkpt lat="42.82963" lon="0.19403">
        <ele>1960</ele>
        <time>2020-07-14T08:46:23Z</time>
      </trkpt>
      <trkpt lat="42.82954" lon="0.19407">
        <ele>1961</ele>
        <time>2020-07-14T08:46:52Z</time>
      </trkpt>
      <trkpt lat="42.82968" lon="0.19401">
        <ele>1962</ele>
        <time>2020-07-14T08:47:16Z</time>
      </trkpt>
      <trkpt lat="42.82967" lon="0.19413">
        <ele>1967</ele>
        <time>2020-07-14T08:48:19Z</time>
      </trkpt>
      <trkpt lat="42.82965" lon="0.19428">
        <ele>1972</ele>
        <time>2020-07-14T08:48:37Z</time>
      </trkpt>
      <trkpt lat="42.82973" lon="0.19419">
        <ele>1974</ele>
        <time>2020-07-14T08:49:17Z</time>
      </trkpt>
      <trkpt lat="42.82964" lon="0.19415">
        <ele>1967</ele>
        <time>2020-07-14T08:51:13Z</time>
      </trkpt>
      <trkpt lat="42.82954" lon="0.19414">
        <ele>1968</ele>
        <time>2020-07-14T08:51:33Z</time>
      </trkpt>
      <trkpt lat="42.82945" lon="0.1941">
        <ele>1965</ele>
        <time>2020-07-14T08:51:52Z</time>
      </trkpt>
      <trkpt lat="42.82936" lon="0.19406">
        <ele>1976</ele>
        <time>2020-07-14T08:52:07Z</time>
      </trkpt>
      <trkpt lat="42.82927" lon="0.19408">
        <ele>1977</ele>
        <time>2020-07-14T08:52:35Z</time>
      </trkpt>
      <trkpt lat="42.82917" lon="0.19411">
        <ele>1988</ele>
        <time>2020-07-14T08:52:54Z</time>
      </trkpt>
      <trkpt lat="42.82908" lon="0.19409">
        <ele>1986</ele>
        <time>2020-07-14T08:53:53Z</time>
      </trkpt>
      <trkpt lat="42.82896" lon="0.19413">
        <ele>1992</ele>
        <time>2020-07-14T08:54:23Z</time>
      </trkpt>
      <trkpt lat="42.82889" lon="0.19422">
        <ele>1997</ele>
        <time>2020-07-14T08:54:40Z</time>
      </trkpt>
      <trkpt lat="42.82883" lon="0.19432">
        <ele>2005</ele>
        <time>2020-07-14T08:55:43Z</time>
      </trkpt>
      <trkpt lat="42.82871" lon="0.19434">
        <ele>2005</ele>
        <time>2020-07-14T08:56:10Z</time>
      </trkpt>
      <trkpt lat="42.82864" lon="0.19426">
        <ele>2012</ele>
        <time>2020-07-14T08:56:35Z</time>
      </trkpt>
      <trkpt lat="42.82862" lon="0.19414">
        <ele>2013</ele>
        <time>2020-07-14T08:56:52Z</time>
      </trkpt>
      <trkpt lat="42.82855" lon="0.19401">
        <ele>2020</ele>
        <time>2020-07-14T08:57:42Z</time>
      </trkpt>
      <trkpt lat="42.82846" lon="0.19397">
        <ele>2028</ele>
        <time>2020-07-14T08:58:07Z</time>
      </trkpt>
      <trkpt lat="42.82842" lon="0.19387">
        <ele>2030</ele>
        <time>2020-07-14T08:58:33Z</time>
      </trkpt>
      <trkpt lat="42.82835" lon="0.19377">
        <ele>2038</ele>
        <time>2020-07-14T08:59:06Z</time>
      </trkpt>
      <trkpt lat="42.82837" lon="0.19365">
        <ele>2044</ele>
        <time>2020-07-14T08:59:42Z</time>
      </trkpt>
      <trkpt lat="42.82829" lon="0.19358">
        <ele>2047</ele>
        <time>2020-07-14T08:59:58Z</time>
      </trkpt>
      <trkpt lat="42.82819" lon="0.19357">
        <ele>2042</ele>
        <time>2020-07-14T09:00:16Z</time>
      </trkpt>
      <trkpt lat="42.82812" lon="0.19365">
        <ele>2040</ele>
        <time>2020-07-14T09:00:31Z</time>
      </trkpt>
      <trkpt lat="42.82805" lon="0.19373">
        <ele>2043</ele>
        <time>2020-07-14T09:00:45Z</time>
      </trkpt>
      <trkpt lat="42.82797" lon="0.19379">
        <ele>2047</ele>
        <time>2020-07-14T09:01:03Z</time>
      </trkpt>
      <trkpt lat="42.82809" lon="0.1938">
        <ele>2057</ele>
        <time>2020-07-14T09:01:34Z</time>
      </trkpt>
      <trkpt lat="42.828" lon="0.19375">
        <ele>2058</ele>
        <time>2020-07-14T09:01:39Z</time>
      </trkpt>
      <trkpt lat="42.82793" lon="0.19366">
        <ele>2061</ele>
        <time>2020-07-14T09:01:49Z</time>
      </trkpt>
      <trkpt lat="42.82801" lon="0.19359">
        <ele>2060</ele>
        <time>2020-07-14T09:02:16Z</time>
      </trkpt>
      <trkpt lat="42.828" lon="0.19347">
        <ele>2062</ele>
        <time>2020-07-14T09:03:44Z</time>
      </trkpt>
      <trkpt lat="42.82796" lon="0.19334">
        <ele>2064</ele>
        <time>2020-07-14T09:03:57Z</time>
      </trkpt>
      <trkpt lat="42.82795" lon="0.1932">
        <ele>2065</ele>
        <time>2020-07-14T09:04:13Z</time>
      </trkpt>
      <trkpt lat="42.82792" lon="0.19308">
        <ele>2071</ele>
        <time>2020-07-14T09:04:24Z</time>
      </trkpt>
      <trkpt lat="42.82786" lon="0.19298">
        <ele>2071</ele>
        <time>2020-07-14T09:04:36Z</time>
      </trkpt>
      <trkpt lat="42.82782" lon="0.19287">
        <ele>2072</ele>
        <time>2020-07-14T09:05:04Z</time>
      </trkpt>
      <trkpt lat="42.82779" lon="0.19269">
        <ele>2071</ele>
        <time>2020-07-14T09:09:14Z</time>
      </trkpt>
      <trkpt lat="42.82779" lon="0.19253">
        <ele>2076</ele>
        <time>2020-07-14T09:09:20Z</time>
      </trkpt>
      <trkpt lat="42.82779" lon="0.1924">
        <ele>2077</ele>
        <time>2020-07-14T09:09:24Z</time>
      </trkpt>
      <trkpt lat="42.82779" lon="0.19225">
        <ele>2079</ele>
        <time>2020-07-14T09:09:31Z</time>
      </trkpt>
      <trkpt lat="42.8278" lon="0.19213">
        <ele>2081</ele>
        <time>2020-07-14T09:09:40Z</time>
      </trkpt>
      <trkpt lat="42.82779" lon="0.19199">
        <ele>2082</ele>
        <time>2020-07-14T09:09:51Z</time>
      </trkpt>
      <trkpt lat="42.82779" lon="0.19185">
        <ele>2083</ele>
        <time>2020-07-14T09:10:03Z</time>
      </trkpt>
      <trkpt lat="42.82781" lon="0.19172">
        <ele>2084</ele>
        <time>2020-07-14T09:10:15Z</time>
      </trkpt>
      <trkpt lat="42.82785" lon="0.19161">
        <ele>2085</ele>
        <time>2020-07-14T09:10:28Z</time>
      </trkpt>
      <trkpt lat="42.82787" lon="0.19148">
        <ele>2088</ele>
        <time>2020-07-14T09:10:43Z</time>
      </trkpt>
      <trkpt lat="42.82786" lon="0.19135">
        <ele>2091</ele>
        <time>2020-07-14T09:10:59Z</time>
      </trkpt>
      <trkpt lat="42.82783" lon="0.19123">
        <ele>2092</ele>
        <time>2020-07-14T09:11:17Z</time>
      </trkpt>
      <trkpt lat="42.82778" lon="0.19111">
        <ele>2099</ele>
        <time>2020-07-14T09:11:35Z</time>
      </trkpt>
      <trkpt lat="42.82772" lon="0.19102">
        <ele>2103</ele>
        <time>2020-07-14T09:11:57Z</time>
      </trkpt>
      <trkpt lat="42.82773" lon="0.1909">
        <ele>2105</ele>
        <time>2020-07-14T09:12:15Z</time>
      </trkpt>
      <trkpt lat="42.82781" lon="0.19083">
        <ele>2111</ele>
        <time>2020-07-14T09:12:42Z</time>
      </trkpt>
      <trkpt lat="42.82783" lon="0.1907">
        <ele>2114</ele>
        <time>2020-07-14T09:13:03Z</time>
      </trkpt>
      <trkpt lat="42.82785" lon="0.19057">
        <ele>2122</ele>
        <time>2020-07-14T09:13:26Z</time>
      </trkpt>
      <trkpt lat="42.82791" lon="0.19048">
        <ele>2124</ele>
        <time>2020-07-14T09:13:46Z</time>
      </trkpt>
      <trkpt lat="42.82796" lon="0.19038">
        <ele>2125</ele>
        <time>2020-07-14T09:14:06Z</time>
      </trkpt>
      <trkpt lat="42.82799" lon="0.19025">
        <ele>2129</ele>
        <time>2020-07-14T09:14:21Z</time>
      </trkpt>
      <trkpt lat="42.828" lon="0.19012">
        <ele>2134</ele>
        <time>2020-07-14T09:14:39Z</time>
      </trkpt>
      <trkpt lat="42.82802" lon="0.18999">
        <ele>2137</ele>
        <time>2020-07-14T09:14:57Z</time>
      </trkpt>
      <trkpt lat="42.82805" lon="0.18987">
        <ele>2138</ele>
        <time>2020-07-14T09:15:15Z</time>
      </trkpt>
      <trkpt lat="42.82807" lon="0.18974">
        <ele>2140</ele>
        <time>2020-07-14T09:15:30Z</time>
      </trkpt>
      <trkpt lat="42.82807" lon="0.18961">
        <ele>2144</ele>
        <time>2020-07-14T09:15:43Z</time>
      </trkpt>
      <trkpt lat="42.82807" lon="0.18948">
        <ele>2147</ele>
        <time>2020-07-14T09:15:56Z</time>
      </trkpt>
      <trkpt lat="42.82805" lon="0.18935">
        <ele>2151</ele>
        <time>2020-07-14T09:16:11Z</time>
      </trkpt>
      <trkpt lat="42.82801" lon="0.18924">
        <ele>2152</ele>
        <time>2020-07-14T09:16:26Z</time>
      </trkpt>
      <trkpt lat="42.82802" lon="0.18912">
        <ele>2151</ele>
        <time>2020-07-14T09:16:40Z</time>
      </trkpt>
      <trkpt lat="42.82806" lon="0.189">
        <ele>2153</ele>
        <time>2020-07-14T09:16:54Z</time>
      </trkpt>
      <trkpt lat="42.82801" lon="0.18886">
        <ele>2158</ele>
        <time>2020-07-14T09:17:23Z</time>
      </trkpt>
      <trkpt lat="42.82801" lon="0.18873">
        <ele>2159</ele>
        <time>2020-07-14T09:17:42Z</time>
      </trkpt>
      <trkpt lat="42.82802" lon="0.18861">
        <ele>2159</ele>
        <time>2020-07-14T09:17:55Z</time>
      </trkpt>
      <trkpt lat="42.82806" lon="0.18849">
        <ele>2168</ele>
        <time>2020-07-14T09:18:10Z</time>
      </trkpt>
      <trkpt lat="42.82807" lon="0.18836">
        <ele>2167</ele>
        <time>2020-07-14T09:18:22Z</time>
      </trkpt>
      <trkpt lat="42.82807" lon="0.18823">
        <ele>2166</ele>
        <time>2020-07-14T09:18:34Z</time>
      </trkpt>
      <trkpt lat="42.82808" lon="0.1881">
        <ele>2167</ele>
        <time>2020-07-14T09:18:45Z</time>
      </trkpt>
      <trkpt lat="42.8281" lon="0.18797">
        <ele>2169</ele>
        <time>2020-07-14T09:18:57Z</time>
      </trkpt>
      <trkpt lat="42.82813" lon="0.18785">
        <ele>2170</ele>
        <time>2020-07-14T09:19:08Z</time>
      </trkpt>
      <trkpt lat="42.82815" lon="0.18772">
        <ele>2171</ele>
        <time>2020-07-14T09:19:22Z</time>
      </trkpt>
      <trkpt lat="42.82815" lon="0.18759">
        <ele>2170</ele>
        <time>2020-07-14T09:19:35Z</time>
      </trkpt>
      <trkpt lat="42.82814" lon="0.18747">
        <ele>2171</ele>
        <time>2020-07-14T09:19:45Z</time>
      </trkpt>
      <trkpt lat="42.82814" lon="0.18734">
        <ele>2170</ele>
        <time>2020-07-14T09:19:54Z</time>
      </trkpt>
      <trkpt lat="42.82816" lon="0.1872">
        <ele>2174</ele>
        <time>2020-07-14T09:20:03Z</time>
      </trkpt>
      <trkpt lat="42.82819" lon="0.18708">
        <ele>2182</ele>
        <time>2020-07-14T09:20:13Z</time>
      </trkpt>
      <trkpt lat="42.8282" lon="0.18696">
        <ele>2178</ele>
        <time>2020-07-14T09:20:25Z</time>
      </trkpt>
      <trkpt lat="42.82816" lon="0.18684">
        <ele>2179</ele>
        <time>2020-07-14T09:20:38Z</time>
      </trkpt>
      <trkpt lat="42.82808" lon="0.18677">
        <ele>2180</ele>
        <time>2020-07-14T09:20:53Z</time>
      </trkpt>
      <trkpt lat="42.82807" lon="0.18664">
        <ele>2182</ele>
        <time>2020-07-14T09:21:07Z</time>
      </trkpt>
      <trkpt lat="42.8281" lon="0.18652">
        <ele>2185</ele>
        <time>2020-07-14T09:21:22Z</time>
      </trkpt>
      <trkpt lat="42.82807" lon="0.1864">
        <ele>2188</ele>
        <time>2020-07-14T09:21:37Z</time>
      </trkpt>
      <trkpt lat="42.82805" lon="0.18627">
        <ele>2190</ele>
        <time>2020-07-14T09:21:54Z</time>
      </trkpt>
      <trkpt lat="42.82804" lon="0.18614">
        <ele>2196</ele>
        <time>2020-07-14T09:22:09Z</time>
      </trkpt>
      <trkpt lat="42.82798" lon="0.18604">
        <ele>2205</ele>
        <time>2020-07-14T09:22:24Z</time>
      </trkpt>
      <trkpt lat="42.8279" lon="0.18598">
        <ele>2201</ele>
        <time>2020-07-14T09:22:43Z</time>
      </trkpt>
      <trkpt lat="42.82785" lon="0.18588">
        <ele>2210</ele>
        <time>2020-07-14T09:22:58Z</time>
      </trkpt>
      <trkpt lat="42.82778" lon="0.18579">
        <ele>2208</ele>
        <time>2020-07-14T09:23:39Z</time>
      </trkpt>
      <trkpt lat="42.82773" lon="0.18568">
        <ele>2206</ele>
        <time>2020-07-14T09:23:52Z</time>
      </trkpt>
      <trkpt lat="42.82767" lon="0.18557">
        <ele>2202</ele>
        <time>2020-07-14T09:24:03Z</time>
      </trkpt>
      <trkpt lat="42.82766" lon="0.18544">
        <ele>2208</ele>
        <time>2020-07-14T09:24:17Z</time>
      </trkpt>
      <trkpt lat="42.82761" lon="0.18533">
        <ele>2207</ele>
        <time>2020-07-14T09:24:28Z</time>
      </trkpt>
      <trkpt lat="42.82757" lon="0.18522">
        <ele>2211</ele>
        <time>2020-07-14T09:24:46Z</time>
      </trkpt>
      <trkpt lat="42.82758" lon="0.18503">
        <ele>2216</ele>
        <time>2020-07-14T09:25:19Z</time>
      </trkpt>
      <trkpt lat="42.82757" lon="0.18491">
        <ele>2224</ele>
        <time>2020-07-14T09:25:34Z</time>
      </trkpt>
      <trkpt lat="42.82752" lon="0.1848">
        <ele>2230</ele>
        <time>2020-07-14T09:25:49Z</time>
      </trkpt>
      <trkpt lat="42.82743" lon="0.18476">
        <ele>2226</ele>
        <time>2020-07-14T09:26:09Z</time>
      </trkpt>
      <trkpt lat="42.82737" lon="0.18466">
        <ele>2223</ele>
        <time>2020-07-14T09:26:22Z</time>
      </trkpt>
      <trkpt lat="42.82729" lon="0.1846">
        <ele>2229</ele>
        <time>2020-07-14T09:26:35Z</time>
      </trkpt>
      <trkpt lat="42.82723" lon="0.18446">
        <ele>2236</ele>
        <time>2020-07-14T09:27:07Z</time>
      </trkpt>
      <trkpt lat="42.82716" lon="0.18436">
        <ele>2240</ele>
        <time>2020-07-14T09:27:37Z</time>
      </trkpt>
      <trkpt lat="42.8271" lon="0.18426">
        <ele>2244</ele>
        <time>2020-07-14T09:27:57Z</time>
      </trkpt>
      <trkpt lat="42.82703" lon="0.18417">
        <ele>2245</ele>
        <time>2020-07-14T09:28:11Z</time>
      </trkpt>
      <trkpt lat="42.82694" lon="0.18412">
        <ele>2249</ele>
        <time>2020-07-14T09:28:27Z</time>
      </trkpt>
      <trkpt lat="42.82685" lon="0.18406">
        <ele>2248</ele>
        <time>2020-07-14T09:28:41Z</time>
      </trkpt>
      <trkpt lat="42.82679" lon="0.18397">
        <ele>2255</ele>
        <time>2020-07-14T09:28:54Z</time>
      </trkpt>
      <trkpt lat="42.82673" lon="0.18388">
        <ele>2250</ele>
        <time>2020-07-14T09:29:06Z</time>
      </trkpt>
      <trkpt lat="42.82669" lon="0.18375">
        <ele>2251</ele>
        <time>2020-07-14T09:29:19Z</time>
      </trkpt>
      <trkpt lat="42.82669" lon="0.18361">
        <ele>2253</ele>
        <time>2020-07-14T09:29:31Z</time>
      </trkpt>
      <trkpt lat="42.82666" lon="0.18349">
        <ele>2254</ele>
        <time>2020-07-14T09:29:47Z</time>
      </trkpt>
      <trkpt lat="42.82674" lon="0.18359">
        <ele>2254</ele>
        <time>2020-07-14T09:32:16Z</time>
      </trkpt>
      <trkpt lat="42.82672" lon="0.18373">
        <ele>2255</ele>
        <time>2020-07-14T09:32:26Z</time>
      </trkpt>
      <trkpt lat="42.82664" lon="0.18381">
        <ele>2255</ele>
        <time>2020-07-14T09:32:49Z</time>
      </trkpt>
      <trkpt lat="42.8267" lon="0.18368">
        <ele>2260</ele>
        <time>2020-07-14T09:38:47Z</time>
      </trkpt>
      <trkpt lat="42.82679" lon="0.18363">
        <ele>2258</ele>
        <time>2020-07-14T09:39:20Z</time>
      </trkpt>
      <trkpt lat="42.8268" lon="0.18347">
        <ele>2254</ele>
        <time>2020-07-14T09:39:57Z</time>
      </trkpt>
      <trkpt lat="42.82681" lon="0.18334">
        <ele>2252</ele>
        <time>2020-07-14T09:40:07Z</time>
      </trkpt>
      <trkpt lat="42.82684" lon="0.1832">
        <ele>2251</ele>
        <time>2020-07-14T09:40:14Z</time>
      </trkpt>
      <trkpt lat="42.82687" lon="0.18306">
        <ele>2251</ele>
        <time>2020-07-14T09:40:21Z</time>
      </trkpt>
      <trkpt lat="42.8269" lon="0.18293">
        <ele>2249</ele>
        <time>2020-07-14T09:40:27Z</time>
      </trkpt>
      <trkpt lat="42.82694" lon="0.1828">
        <ele>2248</ele>
        <time>2020-07-14T09:40:36Z</time>
      </trkpt>
      <trkpt lat="42.82699" lon="0.1827">
        <ele>2244</ele>
        <time>2020-07-14T09:40:45Z</time>
      </trkpt>
      <trkpt lat="42.82704" lon="0.18257">
        <ele>2246</ele>
        <time>2020-07-14T09:40:56Z</time>
      </trkpt>
      <trkpt lat="42.82706" lon="0.18245">
        <ele>2246</ele>
        <time>2020-07-14T09:41:05Z</time>
      </trkpt>
      <trkpt lat="42.82709" lon="0.18232">
        <ele>2244</ele>
        <time>2020-07-14T09:41:16Z</time>
      </trkpt>
      <trkpt lat="42.82713" lon="0.1822">
        <ele>2245</ele>
        <time>2020-07-14T09:41:26Z</time>
      </trkpt>
      <trkpt lat="42.82717" lon="0.18208">
        <ele>2242</ele>
        <time>2020-07-14T09:41:35Z</time>
      </trkpt>
      <trkpt lat="42.8272" lon="0.18196">
        <ele>2241</ele>
        <time>2020-07-14T09:41:45Z</time>
      </trkpt>
      <trkpt lat="42.82724" lon="0.18184">
        <ele>2240</ele>
        <time>2020-07-14T09:41:53Z</time>
      </trkpt>
      <trkpt lat="42.82729" lon="0.18172">
        <ele>2239</ele>
        <time>2020-07-14T09:42:01Z</time>
      </trkpt>
      <trkpt lat="42.82731" lon="0.18159">
        <ele>2236</ele>
        <time>2020-07-14T09:42:11Z</time>
      </trkpt>
      <trkpt lat="42.82733" lon="0.18146">
        <ele>2234</ele>
        <time>2020-07-14T09:42:20Z</time>
      </trkpt>
      <trkpt lat="42.82731" lon="0.18132">
        <ele>2231</ele>
        <time>2020-07-14T09:42:29Z</time>
      </trkpt>
      <trkpt lat="42.8273" lon="0.18118">
        <ele>2225</ele>
        <time>2020-07-14T09:42:39Z</time>
      </trkpt>
      <trkpt lat="42.82731" lon="0.18105">
        <ele>2226</ele>
        <time>2020-07-14T09:42:48Z</time>
      </trkpt>
      <trkpt lat="42.82728" lon="0.18092">
        <ele>2222</ele>
        <time>2020-07-14T09:42:57Z</time>
      </trkpt>
      <trkpt lat="42.82721" lon="0.18084">
        <ele>2224</ele>
        <time>2020-07-14T09:43:07Z</time>
      </trkpt>
      <trkpt lat="42.82714" lon="0.18075">
        <ele>2222</ele>
        <time>2020-07-14T09:43:17Z</time>
      </trkpt>
      <trkpt lat="42.82706" lon="0.18067">
        <ele>2223</ele>
        <time>2020-07-14T09:43:28Z</time>
      </trkpt>
      <trkpt lat="42.82699" lon="0.18055">
        <ele>2221</ele>
        <time>2020-07-14T09:43:51Z</time>
      </trkpt>
      <trkpt lat="42.82689" lon="0.18052">
        <ele>2220</ele>
        <time>2020-07-14T09:44:13Z</time>
      </trkpt>
      <trkpt lat="42.82688" lon="0.18039">
        <ele>2221</ele>
        <time>2020-07-14T09:44:45Z</time>
      </trkpt>
      <trkpt lat="42.82689" lon="0.18025">
        <ele>2218</ele>
        <time>2020-07-14T09:45:03Z</time>
      </trkpt>
      <trkpt lat="42.82696" lon="0.18015">
        <ele>2218</ele>
        <time>2020-07-14T09:45:24Z</time>
      </trkpt>
      <trkpt lat="42.82696" lon="0.18001">
        <ele>2217</ele>
        <time>2020-07-14T09:45:39Z</time>
      </trkpt>
      <trkpt lat="42.82702" lon="0.17991">
        <ele>2212</ele>
        <time>2020-07-14T09:46:18Z</time>
      </trkpt>
      <trkpt lat="42.82704" lon="0.17977">
        <ele>2208</ele>
        <time>2020-07-14T09:46:53Z</time>
      </trkpt>
      <trkpt lat="42.827" lon="0.17961">
        <ele>2206</ele>
        <time>2020-07-14T09:47:55Z</time>
      </trkpt>
      <trkpt lat="42.82692" lon="0.17955">
        <ele>2197</ele>
        <time>2020-07-14T09:48:37Z</time>
      </trkpt>
      <trkpt lat="42.82689" lon="0.1794">
        <ele>2185</ele>
        <time>2020-07-14T09:50:08Z</time>
      </trkpt>
      <trkpt lat="42.82687" lon="0.17928">
        <ele>2184</ele>
        <time>2020-07-14T09:50:28Z</time>
      </trkpt>
      <trkpt lat="42.82687" lon="0.17915">
        <ele>2174</ele>
        <time>2020-07-14T09:50:50Z</time>
      </trkpt>
      <trkpt lat="42.82689" lon="0.17902">
        <ele>2174</ele>
        <time>2020-07-14T09:55:47Z</time>
      </trkpt>
      <trkpt lat="42.82691" lon="0.17889">
        <ele>2175</ele>
        <time>2020-07-14T09:58:15Z</time>
      </trkpt>
      <trkpt lat="42.82694" lon="0.17877">
        <ele>2169</ele>
        <time>2020-07-14T09:58:38Z</time>
      </trkpt>
      <trkpt lat="42.82695" lon="0.17864">
        <ele>2167</ele>
        <time>2020-07-14T09:58:55Z</time>
      </trkpt>
      <trkpt lat="42.82695" lon="0.17851">
        <ele>2159</ele>
        <time>2020-07-14T09:59:05Z</time>
      </trkpt>
      <trkpt lat="42.82688" lon="0.17836">
        <ele>2160</ele>
        <time>2020-07-14T09:59:27Z</time>
      </trkpt>
      <trkpt lat="42.82687" lon="0.17823">
        <ele>2158</ele>
        <time>2020-07-14T09:59:39Z</time>
      </trkpt>
      <trkpt lat="42.82694" lon="0.17813">
        <ele>2159</ele>
        <time>2020-07-14T09:59:47Z</time>
      </trkpt>
      <trkpt lat="42.82702" lon="0.17805">
        <ele>2161</ele>
        <time>2020-07-14T09:59:57Z</time>
      </trkpt>
      <trkpt lat="42.82708" lon="0.17796">
        <ele>2156</ele>
        <time>2020-07-14T10:00:11Z</time>
      </trkpt>
      <trkpt lat="42.82701" lon="0.17781">
        <ele>2151</ele>
        <time>2020-07-14T10:00:59Z</time>
      </trkpt>
      <trkpt lat="42.82692" lon="0.17786">
        <ele>2146</ele>
        <time>2020-07-14T10:01:15Z</time>
      </trkpt>
      <trkpt lat="42.82682" lon="0.17786">
        <ele>2148</ele>
        <time>2020-07-14T10:01:26Z</time>
      </trkpt>
      <trkpt lat="42.82674" lon="0.17776">
        <ele>2146</ele>
        <time>2020-07-14T10:02:05Z</time>
      </trkpt>
      <trkpt lat="42.82673" lon="0.17762">
        <ele>2144</ele>
        <time>2020-07-14T10:02:15Z</time>
      </trkpt>
      <trkpt lat="42.82667" lon="0.17749">
        <ele>2139</ele>
        <time>2020-07-14T10:03:12Z</time>
      </trkpt>
      <trkpt lat="42.82657" lon="0.17747">
        <ele>2134</ele>
        <time>2020-07-14T10:03:27Z</time>
      </trkpt>
      <trkpt lat="42.82648" lon="0.17743">
        <ele>2134</ele>
        <time>2020-07-14T10:03:37Z</time>
      </trkpt>
      <trkpt lat="42.82652" lon="0.17732">
        <ele>2139</ele>
        <time>2020-07-14T10:06:23Z</time>
      </trkpt>
      <trkpt lat="42.82656" lon="0.1772">
        <ele>2136</ele>
        <time>2020-07-14T10:08:11Z</time>
      </trkpt>
      <trkpt lat="42.82663" lon="0.1771">
        <ele>2134</ele>
        <time>2020-07-14T10:08:21Z</time>
      </trkpt>
      <trkpt lat="42.82669" lon="0.17698">
        <ele>2134</ele>
        <time>2020-07-14T10:08:31Z</time>
      </trkpt>
      <trkpt lat="42.82673" lon="0.17687">
        <ele>2132</ele>
        <time>2020-07-14T10:08:41Z</time>
      </trkpt>
      <trkpt lat="42.82679" lon="0.17676">
        <ele>2128</ele>
        <time>2020-07-14T10:08:57Z</time>
      </trkpt>
      <trkpt lat="42.82687" lon="0.1767">
        <ele>2128</ele>
        <time>2020-07-14T10:09:11Z</time>
      </trkpt>
      <trkpt lat="42.82695" lon="0.17665">
        <ele>2125</ele>
        <time>2020-07-14T10:09:23Z</time>
      </trkpt>
      <trkpt lat="42.82701" lon="0.17652">
        <ele>2125</ele>
        <time>2020-07-14T10:09:53Z</time>
      </trkpt>
      <trkpt lat="42.82688" lon="0.17654">
        <ele>2121</ele>
        <time>2020-07-14T10:10:12Z</time>
      </trkpt>
      <trkpt lat="42.82697" lon="0.1765">
        <ele>2112</ele>
        <time>2020-07-14T10:12:31Z</time>
      </trkpt>
      <trkpt lat="42.82706" lon="0.17651">
        <ele>2110</ele>
        <time>2020-07-14T10:12:50Z</time>
      </trkpt>
      <trkpt lat="42.82717" lon="0.17653">
        <ele>2101</ele>
        <time>2020-07-14T10:16:10Z</time>
      </trkpt>
      <trkpt lat="42.82726" lon="0.17654">
        <ele>2101</ele>
        <time>2020-07-14T10:16:27Z</time>
      </trkpt>
      <trkpt lat="42.82735" lon="0.17646">
        <ele>2100</ele>
        <time>2020-07-14T10:16:53Z</time>
      </trkpt>
      <trkpt lat="42.82742" lon="0.17637">
        <ele>2095</ele>
        <time>2020-07-14T10:17:35Z</time>
      </trkpt>
      <trkpt lat="42.82733" lon="0.17642">
        <ele>2095</ele>
        <time>2020-07-14T10:17:38Z</time>
      </trkpt>
      <trkpt lat="42.82743" lon="0.17636">
        <ele>2095</ele>
        <time>2020-07-14T10:17:57Z</time>
      </trkpt>
      <trkpt lat="42.82752" lon="0.17635">
        <ele>2095</ele>
        <time>2020-07-14T10:18:07Z</time>
      </trkpt>
      <trkpt lat="42.82761" lon="0.17641">
        <ele>2095</ele>
        <time>2020-07-14T10:18:17Z</time>
      </trkpt>
      <trkpt lat="42.82769" lon="0.17635">
        <ele>2079</ele>
        <time>2020-07-14T10:19:12Z</time>
      </trkpt>
      <trkpt lat="42.82772" lon="0.17622">
        <ele>2078</ele>
        <time>2020-07-14T10:19:27Z</time>
      </trkpt>
      <trkpt lat="42.82779" lon="0.17614">
        <ele>2079</ele>
        <time>2020-07-14T10:19:51Z</time>
      </trkpt>
      <trkpt lat="42.82788" lon="0.17619">
        <ele>2080</ele>
        <time>2020-07-14T10:20:03Z</time>
      </trkpt>
      <trkpt lat="42.82784" lon="0.17632">
        <ele>2077</ele>
        <time>2020-07-14T10:21:10Z</time>
      </trkpt>
      <trkpt lat="42.82793" lon="0.17624">
        <ele>2077</ele>
        <time>2020-07-14T10:21:43Z</time>
      </trkpt>
      <trkpt lat="42.82803" lon="0.17632">
        <ele>2077</ele>
        <time>2020-07-14T10:22:08Z</time>
      </trkpt>
      <trkpt lat="42.82798" lon="0.17644">
        <ele>2071</ele>
        <time>2020-07-14T10:22:24Z</time>
      </trkpt>
      <trkpt lat="42.82788" lon="0.1764">
        <ele>2064</ele>
        <time>2020-07-14T10:22:32Z</time>
      </trkpt>
      <trkpt lat="42.82782" lon="0.1763">
        <ele>2061</ele>
        <time>2020-07-14T10:22:39Z</time>
      </trkpt>
      <trkpt lat="42.82777" lon="0.17618">
        <ele>2058</ele>
        <time>2020-07-14T10:22:46Z</time>
      </trkpt>
      <trkpt lat="42.82773" lon="0.17605">
        <ele>2057</ele>
        <time>2020-07-14T10:22:53Z</time>
      </trkpt>
      <trkpt lat="42.82771" lon="0.17591">
        <ele>2053</ele>
        <time>2020-07-14T10:23:01Z</time>
      </trkpt>
      <trkpt lat="42.82768" lon="0.17577">
        <ele>2054</ele>
        <time>2020-07-14T10:23:14Z</time>
      </trkpt>
      <trkpt lat="42.82766" lon="0.17564">
        <ele>2055</ele>
        <time>2020-07-14T10:23:29Z</time>
      </trkpt>
      <trkpt lat="42.82767" lon="0.17579">
        <ele>2049</ele>
        <time>2020-07-14T10:24:30Z</time>
      </trkpt>
      <trkpt lat="42.82757" lon="0.1758">
        <ele>2050</ele>
        <time>2020-07-14T10:24:56Z</time>
      </trkpt>
      <trkpt lat="42.82751" lon="0.17571">
        <ele>2047</ele>
        <time>2020-07-14T10:25:05Z</time>
      </trkpt>
      <trkpt lat="42.82746" lon="0.1756">
        <ele>2048</ele>
        <time>2020-07-14T10:25:18Z</time>
      </trkpt>
      <trkpt lat="42.82738" lon="0.17551">
        <ele>2045</ele>
        <time>2020-07-14T10:25:36Z</time>
      </trkpt>
      <trkpt lat="42.82747" lon="0.17548">
        <ele>2035</ele>
        <time>2020-07-14T10:25:49Z</time>
      </trkpt>
      <trkpt lat="42.82757" lon="0.17551">
        <ele>2035</ele>
        <time>2020-07-14T10:25:59Z</time>
      </trkpt>
      <trkpt lat="42.82767" lon="0.17549">
        <ele>2027</ele>
        <time>2020-07-14T10:26:11Z</time>
      </trkpt>
      <trkpt lat="42.82775" lon="0.17542">
        <ele>2023</ele>
        <time>2020-07-14T10:26:23Z</time>
      </trkpt>
      <trkpt lat="42.82783" lon="0.17536">
        <ele>2022</ele>
        <time>2020-07-14T10:26:32Z</time>
      </trkpt>
      <trkpt lat="42.82793" lon="0.17533">
        <ele>2021</ele>
        <time>2020-07-14T10:26:42Z</time>
      </trkpt>
      <trkpt lat="42.82802" lon="0.17527">
        <ele>2017</ele>
        <time>2020-07-14T10:26:55Z</time>
      </trkpt>
      <trkpt lat="42.82804" lon="0.17509">
        <ele>2011</ele>
        <time>2020-07-14T10:27:21Z</time>
      </trkpt>
      <trkpt lat="42.82801" lon="0.17496">
        <ele>2010</ele>
        <time>2020-07-14T10:27:31Z</time>
      </trkpt>
      <trkpt lat="42.8279" lon="0.17495">
        <ele>2009</ele>
        <time>2020-07-14T10:27:57Z</time>
      </trkpt>
      <trkpt lat="42.82786" lon="0.17478">
        <ele>2007</ele>
        <time>2020-07-14T10:28:26Z</time>
      </trkpt>
      <trkpt lat="42.82779" lon="0.17467">
        <ele>2003</ele>
        <time>2020-07-14T10:28:37Z</time>
      </trkpt>
      <trkpt lat="42.8277" lon="0.17464">
        <ele>2002</ele>
        <time>2020-07-14T10:28:49Z</time>
      </trkpt>
      <trkpt lat="42.82772" lon="0.17452">
        <ele>2002</ele>
        <time>2020-07-14T10:29:39Z</time>
      </trkpt>
      <trkpt lat="42.8276" lon="0.17443">
        <ele>1992</ele>
        <time>2020-07-14T10:30:13Z</time>
      </trkpt>
      <trkpt lat="42.82751" lon="0.17442">
        <ele>1990</ele>
        <time>2020-07-14T10:30:21Z</time>
      </trkpt>
      <trkpt lat="42.82739" lon="0.17433">
        <ele>1984</ele>
        <time>2020-07-14T10:30:38Z</time>
      </trkpt>
      <trkpt lat="42.8273" lon="0.17426">
        <ele>1987</ele>
        <time>2020-07-14T10:30:51Z</time>
      </trkpt>
      <trkpt lat="42.82721" lon="0.17417">
        <ele>1985</ele>
        <time>2020-07-14T10:31:18Z</time>
      </trkpt>
      <trkpt lat="42.82723" lon="0.17403">
        <ele>1984</ele>
        <time>2020-07-14T10:31:44Z</time>
      </trkpt>
      <trkpt lat="42.82728" lon="0.17393">
        <ele>1979</ele>
        <time>2020-07-14T10:32:02Z</time>
      </trkpt>
      <trkpt lat="42.82732" lon="0.17381">
        <ele>1976</ele>
        <time>2020-07-14T10:32:15Z</time>
      </trkpt>
      <trkpt lat="42.82735" lon="0.17369">
        <ele>1973</ele>
        <time>2020-07-14T10:32:40Z</time>
      </trkpt>
      <trkpt lat="42.82734" lon="0.17357">
        <ele>1972</ele>
        <time>2020-07-14T10:32:52Z</time>
      </trkpt>
      <trkpt lat="42.82736" lon="0.17338">
        <ele>1969</ele>
        <time>2020-07-14T10:33:15Z</time>
      </trkpt>
      <trkpt lat="42.82737" lon="0.17325">
        <ele>1970</ele>
        <time>2020-07-14T10:33:42Z</time>
      </trkpt>
      <trkpt lat="42.82746" lon="0.17324">
        <ele>1968</ele>
        <time>2020-07-14T10:34:09Z</time>
      </trkpt>
      <trkpt lat="42.82758" lon="0.17334">
        <ele>1961</ele>
        <time>2020-07-14T10:34:37Z</time>
      </trkpt>
      <trkpt lat="42.82766" lon="0.17328">
        <ele>1955</ele>
        <time>2020-07-14T10:34:48Z</time>
      </trkpt>
      <trkpt lat="42.82769" lon="0.17316">
        <ele>1952</ele>
        <time>2020-07-14T10:34:57Z</time>
      </trkpt>
      <trkpt lat="42.82765" lon="0.17304">
        <ele>1953</ele>
        <time>2020-07-14T10:35:04Z</time>
      </trkpt>
      <trkpt lat="42.82764" lon="0.17291">
        <ele>1955</ele>
        <time>2020-07-14T10:35:11Z</time>
      </trkpt>
      <trkpt lat="42.82758" lon="0.1728">
        <ele>1954</ele>
        <time>2020-07-14T10:35:20Z</time>
      </trkpt>
      <trkpt lat="42.82751" lon="0.17268">
        <ele>1949</ele>
        <time>2020-07-14T10:35:29Z</time>
      </trkpt>
      <trkpt lat="42.82743" lon="0.17259">
        <ele>1948</ele>
        <time>2020-07-14T10:35:38Z</time>
      </trkpt>
      <trkpt lat="42.82735" lon="0.17253">
        <ele>1942</ele>
        <time>2020-07-14T10:35:54Z</time>
      </trkpt>
      <trkpt lat="42.82742" lon="0.17238">
        <ele>1944</ele>
        <time>2020-07-14T10:36:13Z</time>
      </trkpt>
      <trkpt lat="42.82751" lon="0.17238">
        <ele>1939</ele>
        <time>2020-07-14T10:36:23Z</time>
      </trkpt>
      <trkpt lat="42.82757" lon="0.17223">
        <ele>1939</ele>
        <time>2020-07-14T10:36:47Z</time>
      </trkpt>
      <trkpt lat="42.8275" lon="0.17212">
        <ele>1938</ele>
        <time>2020-07-14T10:37:12Z</time>
      </trkpt>
      <trkpt lat="42.82741" lon="0.17223">
        <ele>1938</ele>
        <time>2020-07-14T10:37:18Z</time>
      </trkpt>
      <trkpt lat="42.82734" lon="0.17234">
        <ele>1939</ele>
        <time>2020-07-14T10:38:31Z</time>
      </trkpt>
      <trkpt lat="42.8273" lon="0.17221">
        <ele>1935</ele>
        <time>2020-07-14T10:39:17Z</time>
      </trkpt>
      <trkpt lat="42.82725" lon="0.17211">
        <ele>1932</ele>
        <time>2020-07-14T10:39:24Z</time>
      </trkpt>
      <trkpt lat="42.82718" lon="0.17201">
        <ele>1932</ele>
        <time>2020-07-14T10:39:35Z</time>
      </trkpt>
      <trkpt lat="42.8271" lon="0.17193">
        <ele>1926</ele>
        <time>2020-07-14T10:39:45Z</time>
      </trkpt>
      <trkpt lat="42.82703" lon="0.17185">
        <ele>1926</ele>
        <time>2020-07-14T10:39:57Z</time>
      </trkpt>
      <trkpt lat="42.82704" lon="0.17171">
        <ele>1928</ele>
        <time>2020-07-14T10:40:13Z</time>
      </trkpt>
      <trkpt lat="42.82704" lon="0.17159">
        <ele>1920</ele>
        <time>2020-07-14T10:40:31Z</time>
      </trkpt>
      <trkpt lat="42.827" lon="0.17147">
        <ele>1918</ele>
        <time>2020-07-14T10:40:42Z</time>
      </trkpt>
      <trkpt lat="42.82693" lon="0.1714">
        <ele>1917</ele>
        <time>2020-07-14T10:43:53Z</time>
      </trkpt>
      <trkpt lat="42.82691" lon="0.17127">
        <ele>1910</ele>
        <time>2020-07-14T10:44:05Z</time>
      </trkpt>
      <trkpt lat="42.82701" lon="0.17118">
        <ele>1907</ele>
        <time>2020-07-14T10:44:26Z</time>
      </trkpt>
      <trkpt lat="42.82701" lon="0.17105">
        <ele>1910</ele>
        <time>2020-07-14T10:44:43Z</time>
      </trkpt>
      <trkpt lat="42.82713" lon="0.17099">
        <ele>1907</ele>
        <time>2020-07-14T10:45:07Z</time>
      </trkpt>
      <trkpt lat="42.82705" lon="0.17113">
        <ele>1906</ele>
        <time>2020-07-14T10:45:28Z</time>
      </trkpt>
      <trkpt lat="42.82715" lon="0.1711">
        <ele>1907</ele>
        <time>2020-07-14T10:45:49Z</time>
      </trkpt>
      <trkpt lat="42.82724" lon="0.17107">
        <ele>1905</ele>
        <time>2020-07-14T10:45:58Z</time>
      </trkpt>
      <trkpt lat="42.82727" lon="0.17095">
        <ele>1901</ele>
        <time>2020-07-14T10:46:06Z</time>
      </trkpt>
      <trkpt lat="42.82722" lon="0.17082">
        <ele>1901</ele>
        <time>2020-07-14T10:46:11Z</time>
      </trkpt>
      <trkpt lat="42.82722" lon="0.1707">
        <ele>1905</ele>
        <time>2020-07-14T10:46:28Z</time>
      </trkpt>
      <trkpt lat="42.82731" lon="0.17076">
        <ele>1904</ele>
        <time>2020-07-14T10:46:38Z</time>
      </trkpt>
      <trkpt lat="42.82735" lon="0.17089">
        <ele>1905</ele>
        <time>2020-07-14T10:46:45Z</time>
      </trkpt>
      <trkpt lat="42.82739" lon="0.17101">
        <ele>1903</ele>
        <time>2020-07-14T10:46:54Z</time>
      </trkpt>
      <trkpt lat="42.82743" lon="0.17113">
        <ele>1904</ele>
        <time>2020-07-14T10:47:04Z</time>
      </trkpt>
      <trkpt lat="42.82745" lon="0.17125">
        <ele>1906</ele>
        <time>2020-07-14T10:47:15Z</time>
      </trkpt>
      <trkpt lat="42.8275" lon="0.17136">
        <ele>1911</ele>
        <time>2020-07-14T10:47:24Z</time>
      </trkpt>
      <trkpt lat="42.8276" lon="0.17142">
        <ele>1909</ele>
        <time>2020-07-14T10:47:35Z</time>
      </trkpt>
      <trkpt lat="42.82768" lon="0.1715">
        <ele>1909</ele>
        <time>2020-07-14T10:47:43Z</time>
      </trkpt>
      <trkpt lat="42.82776" lon="0.17158">
        <ele>1907</ele>
        <time>2020-07-14T10:47:52Z</time>
      </trkpt>
      <trkpt lat="42.82785" lon="0.17161">
        <ele>1909</ele>
        <time>2020-07-14T10:48:06Z</time>
      </trkpt>
      <trkpt lat="42.82794" lon="0.17161">
        <ele>1902</ele>
        <time>2020-07-14T10:48:18Z</time>
      </trkpt>
      <trkpt lat="42.82804" lon="0.1716">
        <ele>1899</ele>
        <time>2020-07-14T10:48:27Z</time>
      </trkpt>
      <trkpt lat="42.82812" lon="0.17155">
        <ele>1899</ele>
        <time>2020-07-14T10:48:37Z</time>
      </trkpt>
      <trkpt lat="42.82821" lon="0.17149">
        <ele>1898</ele>
        <time>2020-07-14T10:48:45Z</time>
      </trkpt>
      <trkpt lat="42.82829" lon="0.17141">
        <ele>1898</ele>
        <time>2020-07-14T10:48:52Z</time>
      </trkpt>
      <trkpt lat="42.82834" lon="0.1713">
        <ele>1895</ele>
        <time>2020-07-14T10:49:02Z</time>
      </trkpt>
      <trkpt lat="42.82836" lon="0.17116">
        <ele>1893</ele>
        <time>2020-07-14T10:49:09Z</time>
      </trkpt>
      <trkpt lat="42.82841" lon="0.17106">
        <ele>1890</ele>
        <time>2020-07-14T10:49:17Z</time>
      </trkpt>
      <trkpt lat="42.82848" lon="0.17097">
        <ele>1891</ele>
        <time>2020-07-14T10:49:26Z</time>
      </trkpt>
      <trkpt lat="42.82855" lon="0.17089">
        <ele>1887</ele>
        <time>2020-07-14T10:49:37Z</time>
      </trkpt>
      <trkpt lat="42.82863" lon="0.17083">
        <ele>1883</ele>
        <time>2020-07-14T10:49:46Z</time>
      </trkpt>
      <trkpt lat="42.82871" lon="0.17073">
        <ele>1886</ele>
        <time>2020-07-14T10:49:56Z</time>
      </trkpt>
      <trkpt lat="42.82878" lon="0.17065">
        <ele>1884</ele>
        <time>2020-07-14T10:50:05Z</time>
      </trkpt>
      <trkpt lat="42.82885" lon="0.17056">
        <ele>1883</ele>
        <time>2020-07-14T10:50:14Z</time>
      </trkpt>
      <trkpt lat="42.82883" lon="0.17069">
        <ele>1886</ele>
        <time>2020-07-14T10:50:46Z</time>
      </trkpt>
      <trkpt lat="42.82896" lon="0.17071">
        <ele>1887</ele>
        <time>2020-07-14T10:51:07Z</time>
      </trkpt>
      <trkpt lat="42.82905" lon="0.17065">
        <ele>1885</ele>
        <time>2020-07-14T10:51:11Z</time>
      </trkpt>
      <trkpt lat="42.82914" lon="0.1706">
        <ele>1882</ele>
        <time>2020-07-14T10:51:15Z</time>
      </trkpt>
      <trkpt lat="42.82924" lon="0.1705">
        <ele>1882</ele>
        <time>2020-07-14T10:51:20Z</time>
      </trkpt>
      <trkpt lat="42.82929" lon="0.17038">
        <ele>1881</ele>
        <time>2020-07-14T10:51:25Z</time>
      </trkpt>
      <trkpt lat="42.82931" lon="0.17024">
        <ele>1879</ele>
        <time>2020-07-14T10:51:29Z</time>
      </trkpt>
      <trkpt lat="42.82928" lon="0.17011">
        <ele>1880</ele>
        <time>2020-07-14T10:51:33Z</time>
      </trkpt>
      <trkpt lat="42.82922" lon="0.17001">
        <ele>1885</ele>
        <time>2020-07-14T10:51:38Z</time>
      </trkpt>
      <trkpt lat="42.82914" lon="0.16993">
        <ele>1886</ele>
        <time>2020-07-14T10:51:43Z</time>
      </trkpt>
      <trkpt lat="42.82905" lon="0.16987">
        <ele>1885</ele>
        <time>2020-07-14T10:51:48Z</time>
      </trkpt>
      <trkpt lat="42.82895" lon="0.16984">
        <ele>1885</ele>
        <time>2020-07-14T10:51:54Z</time>
      </trkpt>
      <trkpt lat="42.82886" lon="0.16984">
        <ele>1891</ele>
        <time>2020-07-14T10:52:10Z</time>
      </trkpt>
      <trkpt lat="42.82893" lon="0.17011">
        <ele>1893</ele>
        <time>2020-07-14T10:52:20Z</time>
      </trkpt>
      <trkpt lat="42.82888" lon="0.16999">
        <ele>1890</ele>
        <time>2020-07-14T10:52:24Z</time>
      </trkpt>
      <trkpt lat="42.82885" lon="0.16986">
        <ele>1878</ele>
        <time>2020-07-14T10:52:31Z</time>
      </trkpt>
      <trkpt lat="42.82886" lon="0.16972">
        <ele>1880</ele>
        <time>2020-07-14T10:52:39Z</time>
      </trkpt>
      <trkpt lat="42.82884" lon="0.16959">
        <ele>1881</ele>
        <time>2020-07-14T10:52:47Z</time>
      </trkpt>
      <trkpt lat="42.82881" lon="0.16947">
        <ele>1877</ele>
        <time>2020-07-14T10:52:55Z</time>
      </trkpt>
      <trkpt lat="42.82877" lon="0.16933">
        <ele>1873</ele>
        <time>2020-07-14T10:53:05Z</time>
      </trkpt>
      <trkpt lat="42.82869" lon="0.16926">
        <ele>1874</ele>
        <time>2020-07-14T10:53:12Z</time>
      </trkpt>
      <trkpt lat="42.82856" lon="0.16938">
        <ele>1871</ele>
        <time>2020-07-14T10:53:20Z</time>
      </trkpt>
      <trkpt lat="42.82852" lon="0.16953">
        <ele>1869</ele>
        <time>2020-07-14T10:53:24Z</time>
      </trkpt>
      <trkpt lat="42.8285" lon="0.16967">
        <ele>1868</ele>
        <time>2020-07-14T10:53:29Z</time>
      </trkpt>
      <trkpt lat="42.8285" lon="0.16982">
        <ele>1868</ele>
        <time>2020-07-14T10:53:35Z</time>
      </trkpt>
      <trkpt lat="42.82851" lon="0.16995">
        <ele>1868</ele>
        <time>2020-07-14T10:53:41Z</time>
      </trkpt>
      <trkpt lat="42.82848" lon="0.17006">
        <ele>1866</ele>
        <time>2020-07-14T10:53:48Z</time>
      </trkpt>
      <trkpt lat="42.82841" lon="0.17014">
        <ele>1858</ele>
        <time>2020-07-14T10:53:56Z</time>
      </trkpt>
      <trkpt lat="42.82832" lon="0.17018">
        <ele>1864</ele>
        <time>2020-07-14T10:54:07Z</time>
      </trkpt>
      <trkpt lat="42.82822" lon="0.17019">
        <ele>1867</ele>
        <time>2020-07-14T10:54:25Z</time>
      </trkpt>
    </trkseg>
  </trk>
</gpx>